<?xml version="1.0" encoding="UTF-8" standalone="no" ?>
<gpx xmlns="http://www.topografix.com/GPX/1/1" xmlns:xsi="http://www.w3.org/2001/XMLSchema-instance" xsi:schemaLocation="http://www.topografix.com/GPX/1/1 http://www.topografix.com/GPX/1/1/gpx.xsd" version="1.1" creator="VisuGPX - https://www.visugpx.com">
  <metadata>
    <name>Taillefer</name>
    <desc><![CDATA[Taillefer en boucle]]></desc>
  </metadata>
  <trk>
    <name><![CDATA[taillefer]]></name>
    <desc><![CDATA[<h1>OruxMaps</h1><br /><hr align="center" width="480" style="height: 2px; width: 517px"/><h2>Nom: taillefer</h2><br /><p>Temps de départ: 09/27/2014 08:59</p><p>Temps d'arrivée: 09/27/2014 15:41</p><p>Distance: 13,5 km (06:41)</p><p>Temps déplacement: 04:13</p><p>Vitesse moyenne: 2 km/h</p><p>Vitesse moyenne: 3,2 km/h</p><p>Vitess Max.: 12,4 km/h</p><p>Altitude minimale: 1652 m</p><p>Altitude maximale: 2862 m</p><p>Vitesse d'élévation: 348,4 m/h</p><p>Vitesse de descente: -505,7 m/h</p><p>Gain Altitude: 1348 m</p><p>Perte Altitude: -1359 m</p><p>Temps d'élévation: 03:52</p><p>Temps de descente: 02:41</p><hr align="center" width="480" style="height: 2px; width: 517px"/>]]></desc>
    <trkseg>
      <trkpt lat="45.04711" lon="5.87292">
        <ele>1679.67</ele>
        <time>2014-09-27T06:59:37Z</time>
      </trkpt>
      <trkpt lat="45.0472" lon="5.87315">
        <ele>1678.27</ele>
        <time>2014-09-27T07:00:31Z</time>
      </trkpt>
      <trkpt lat="45.04724" lon="5.8734">
        <ele>1677.23</ele>
        <time>2014-09-27T07:00:48Z</time>
      </trkpt>
      <trkpt lat="45.04723" lon="5.87366">
        <ele>1675.3</ele>
        <time>2014-09-27T07:01:06Z</time>
      </trkpt>
      <trkpt lat="45.04723" lon="5.87392">
        <ele>1668.51</ele>
        <time>2014-09-27T07:01:23Z</time>
      </trkpt>
      <trkpt lat="45.04732" lon="5.87416">
        <ele>1670.34</ele>
        <time>2014-09-27T07:02:00Z</time>
      </trkpt>
      <trkpt lat="45.04741" lon="5.8744">
        <ele>1674.74</ele>
        <time>2014-09-27T07:02:25Z</time>
      </trkpt>
      <trkpt lat="45.04743" lon="5.87465">
        <ele>1669.99</ele>
        <time>2014-09-27T07:02:43Z</time>
      </trkpt>
      <trkpt lat="45.04748" lon="5.8749">
        <ele>1663.12</ele>
        <time>2014-09-27T07:03:06Z</time>
      </trkpt>
      <trkpt lat="45.04753" lon="5.87516">
        <ele>1663.84</ele>
        <time>2014-09-27T07:03:21Z</time>
      </trkpt>
      <trkpt lat="45.04755" lon="5.87541">
        <ele>1662.95</ele>
        <time>2014-09-27T07:03:34Z</time>
      </trkpt>
      <trkpt lat="45.0476" lon="5.87566">
        <ele>1664.72</ele>
        <time>2014-09-27T07:03:52Z</time>
      </trkpt>
      <trkpt lat="45.04763" lon="5.87592">
        <ele>1666.41</ele>
        <time>2014-09-27T07:04:15Z</time>
      </trkpt>
      <trkpt lat="45.04766" lon="5.87618">
        <ele>1665.41</ele>
        <time>2014-09-27T07:04:31Z</time>
      </trkpt>
      <trkpt lat="45.04771" lon="5.87643">
        <ele>1666.52</ele>
        <time>2014-09-27T07:04:48Z</time>
      </trkpt>
      <trkpt lat="45.0477" lon="5.87669">
        <ele>1663.02</ele>
        <time>2014-09-27T07:05:06Z</time>
      </trkpt>
      <trkpt lat="45.04773" lon="5.87696">
        <ele>1668.42</ele>
        <time>2014-09-27T07:05:23Z</time>
      </trkpt>
      <trkpt lat="45.04775" lon="5.87722">
        <ele>1672.49</ele>
        <time>2014-09-27T07:05:44Z</time>
      </trkpt>
      <trkpt lat="45.04775" lon="5.87747">
        <ele>1674.04</ele>
        <time>2014-09-27T07:06:07Z</time>
      </trkpt>
      <trkpt lat="45.04778" lon="5.87772">
        <ele>1679.85</ele>
        <time>2014-09-27T07:06:27Z</time>
      </trkpt>
      <trkpt lat="45.04774" lon="5.87798">
        <ele>1682.14</ele>
        <time>2014-09-27T07:06:49Z</time>
      </trkpt>
      <trkpt lat="45.04779" lon="5.87823">
        <ele>1687.24</ele>
        <time>2014-09-27T07:07:12Z</time>
      </trkpt>
      <trkpt lat="45.0478" lon="5.8785">
        <ele>1689.99</ele>
        <time>2014-09-27T07:07:35Z</time>
      </trkpt>
      <trkpt lat="45.04788" lon="5.87874">
        <ele>1693.45</ele>
        <time>2014-09-27T07:08:02Z</time>
      </trkpt>
      <trkpt lat="45.04795" lon="5.87899">
        <ele>1698.58</ele>
        <time>2014-09-27T07:08:22Z</time>
      </trkpt>
      <trkpt lat="45.04798" lon="5.87924">
        <ele>1696.26</ele>
        <time>2014-09-27T07:08:40Z</time>
      </trkpt>
      <trkpt lat="45.04805" lon="5.87948">
        <ele>1700.58</ele>
        <time>2014-09-27T07:08:56Z</time>
      </trkpt>
      <trkpt lat="45.04803" lon="5.87974">
        <ele>1698.98</ele>
        <time>2014-09-27T07:09:16Z</time>
      </trkpt>
      <trkpt lat="45.04811" lon="5.87998">
        <ele>1699.45</ele>
        <time>2014-09-27T07:09:31Z</time>
      </trkpt>
      <trkpt lat="45.04824" lon="5.88017">
        <ele>1697.19</ele>
        <time>2014-09-27T07:09:50Z</time>
      </trkpt>
      <trkpt lat="45.04835" lon="5.88038">
        <ele>1695.39</ele>
        <time>2014-09-27T07:10:18Z</time>
      </trkpt>
      <trkpt lat="45.04851" lon="5.88049">
        <ele>1695.29</ele>
        <time>2014-09-27T07:10:30Z</time>
      </trkpt>
      <trkpt lat="45.04865" lon="5.88065">
        <ele>1695.18</ele>
        <time>2014-09-27T07:10:45Z</time>
      </trkpt>
      <trkpt lat="45.04881" lon="5.88079">
        <ele>1693.31</ele>
        <time>2014-09-27T07:11:04Z</time>
      </trkpt>
      <trkpt lat="45.04897" lon="5.88093">
        <ele>1690.93</ele>
        <time>2014-09-27T07:11:20Z</time>
      </trkpt>
      <trkpt lat="45.04907" lon="5.88116">
        <ele>1686.36</ele>
        <time>2014-09-27T07:11:36Z</time>
      </trkpt>
      <trkpt lat="45.04908" lon="5.88142">
        <ele>1686.45</ele>
        <time>2014-09-27T07:11:54Z</time>
      </trkpt>
      <trkpt lat="45.04918" lon="5.88164">
        <ele>1686.75</ele>
        <time>2014-09-27T07:12:11Z</time>
      </trkpt>
      <trkpt lat="45.04929" lon="5.88186">
        <ele>1688.35</ele>
        <time>2014-09-27T07:12:31Z</time>
      </trkpt>
      <trkpt lat="45.04938" lon="5.88208">
        <ele>1691.04</ele>
        <time>2014-09-27T07:12:51Z</time>
      </trkpt>
      <trkpt lat="45.04946" lon="5.88231">
        <ele>1692.74</ele>
        <time>2014-09-27T07:13:18Z</time>
      </trkpt>
      <trkpt lat="45.04952" lon="5.88255">
        <ele>1694.12</ele>
        <time>2014-09-27T07:13:37Z</time>
      </trkpt>
      <trkpt lat="45.04958" lon="5.8828">
        <ele>1695.83</ele>
        <time>2014-09-27T07:13:57Z</time>
      </trkpt>
      <trkpt lat="45.04971" lon="5.88299">
        <ele>1696.58</ele>
        <time>2014-09-27T07:14:15Z</time>
      </trkpt>
      <trkpt lat="45.04982" lon="5.8832">
        <ele>1696.04</ele>
        <time>2014-09-27T07:14:33Z</time>
      </trkpt>
      <trkpt lat="45.0499" lon="5.88343">
        <ele>1697.96</ele>
        <time>2014-09-27T07:14:53Z</time>
      </trkpt>
      <trkpt lat="45.05003" lon="5.88363">
        <ele>1698.71</ele>
        <time>2014-09-27T07:15:16Z</time>
      </trkpt>
      <trkpt lat="45.05015" lon="5.88382">
        <ele>1701.87</ele>
        <time>2014-09-27T07:15:41Z</time>
      </trkpt>
      <trkpt lat="45.05028" lon="5.88401">
        <ele>1704.05</ele>
        <time>2014-09-27T07:15:59Z</time>
      </trkpt>
      <trkpt lat="45.05042" lon="5.88418">
        <ele>1701.4</ele>
        <time>2014-09-27T07:16:18Z</time>
      </trkpt>
      <trkpt lat="45.05055" lon="5.88435">
        <ele>1706.1</ele>
        <time>2014-09-27T07:16:40Z</time>
      </trkpt>
      <trkpt lat="45.05069" lon="5.88451">
        <ele>1714.28</ele>
        <time>2014-09-27T07:17:12Z</time>
      </trkpt>
      <trkpt lat="45.05085" lon="5.88464">
        <ele>1714.13</ele>
        <time>2014-09-27T07:17:34Z</time>
      </trkpt>
      <trkpt lat="45.05102" lon="5.88475">
        <ele>1712.02</ele>
        <time>2014-09-27T07:17:49Z</time>
      </trkpt>
      <trkpt lat="45.05113" lon="5.88496">
        <ele>1713.22</ele>
        <time>2014-09-27T07:18:07Z</time>
      </trkpt>
      <trkpt lat="45.05122" lon="5.88518">
        <ele>1718</ele>
        <time>2014-09-27T07:18:30Z</time>
      </trkpt>
      <trkpt lat="45.0513" lon="5.88542">
        <ele>1717.5</ele>
        <time>2014-09-27T07:18:50Z</time>
      </trkpt>
      <trkpt lat="45.05134" lon="5.88568">
        <ele>1719.96</ele>
        <time>2014-09-27T07:19:12Z</time>
      </trkpt>
      <trkpt lat="45.05146" lon="5.88588">
        <ele>1720.99</ele>
        <time>2014-09-27T07:19:38Z</time>
      </trkpt>
      <trkpt lat="45.05157" lon="5.88609">
        <ele>1725.76</ele>
        <time>2014-09-27T07:19:54Z</time>
      </trkpt>
      <trkpt lat="45.05164" lon="5.88633">
        <ele>1725.45</ele>
        <time>2014-09-27T07:21:16Z</time>
      </trkpt>
      <trkpt lat="45.05174" lon="5.88655">
        <ele>1719.42</ele>
        <time>2014-09-27T07:21:39Z</time>
      </trkpt>
      <trkpt lat="45.05175" lon="5.8868">
        <ele>1710.38</ele>
        <time>2014-09-27T07:22:10Z</time>
      </trkpt>
      <trkpt lat="45.05177" lon="5.88706">
        <ele>1711.79</ele>
        <time>2014-09-27T07:22:30Z</time>
      </trkpt>
      <trkpt lat="45.0518" lon="5.88733">
        <ele>1706.88</ele>
        <time>2014-09-27T07:22:50Z</time>
      </trkpt>
      <trkpt lat="45.05174" lon="5.88757">
        <ele>1700.31</ele>
        <time>2014-09-27T07:23:11Z</time>
      </trkpt>
      <trkpt lat="45.05175" lon="5.88784">
        <ele>1699</ele>
        <time>2014-09-27T07:23:31Z</time>
      </trkpt>
      <trkpt lat="45.05176" lon="5.8881">
        <ele>1700.09</ele>
        <time>2014-09-27T07:23:49Z</time>
      </trkpt>
      <trkpt lat="45.05182" lon="5.88836">
        <ele>1702.68</ele>
        <time>2014-09-27T07:24:05Z</time>
      </trkpt>
      <trkpt lat="45.05185" lon="5.88861">
        <ele>1700.72</ele>
        <time>2014-09-27T07:24:20Z</time>
      </trkpt>
      <trkpt lat="45.05188" lon="5.88887">
        <ele>1697.92</ele>
        <time>2014-09-27T07:24:38Z</time>
      </trkpt>
      <trkpt lat="45.05195" lon="5.88912">
        <ele>1696.89</ele>
        <time>2014-09-27T07:24:56Z</time>
      </trkpt>
      <trkpt lat="45.05209" lon="5.88928">
        <ele>1700.61</ele>
        <time>2014-09-27T07:25:12Z</time>
      </trkpt>
      <trkpt lat="45.05214" lon="5.88953">
        <ele>1694.99</ele>
        <time>2014-09-27T07:25:29Z</time>
      </trkpt>
      <trkpt lat="45.05222" lon="5.88977">
        <ele>1695.54</ele>
        <time>2014-09-27T07:25:46Z</time>
      </trkpt>
      <trkpt lat="45.05221" lon="5.89003">
        <ele>1695.22</ele>
        <time>2014-09-27T07:26:11Z</time>
      </trkpt>
      <trkpt lat="45.05218" lon="5.89028">
        <ele>1692.44</ele>
        <time>2014-09-27T07:26:27Z</time>
      </trkpt>
      <trkpt lat="45.05214" lon="5.89055">
        <ele>1691.09</ele>
        <time>2014-09-27T07:26:42Z</time>
      </trkpt>
      <trkpt lat="45.05214" lon="5.8908">
        <ele>1690.06</ele>
        <time>2014-09-27T07:26:59Z</time>
      </trkpt>
      <trkpt lat="45.05203" lon="5.89101">
        <ele>1689.04</ele>
        <time>2014-09-27T07:27:27Z</time>
      </trkpt>
      <trkpt lat="45.05197" lon="5.89126">
        <ele>1690.88</ele>
        <time>2014-09-27T07:27:48Z</time>
      </trkpt>
      <trkpt lat="45.05187" lon="5.89148">
        <ele>1692.19</ele>
        <time>2014-09-27T07:28:06Z</time>
      </trkpt>
      <trkpt lat="45.05185" lon="5.89174">
        <ele>1694.03</ele>
        <time>2014-09-27T07:28:28Z</time>
      </trkpt>
      <trkpt lat="45.05182" lon="5.892">
        <ele>1694.61</ele>
        <time>2014-09-27T07:28:46Z</time>
      </trkpt>
      <trkpt lat="45.05179" lon="5.89226">
        <ele>1694.03</ele>
        <time>2014-09-27T07:29:05Z</time>
      </trkpt>
      <trkpt lat="45.05185" lon="5.89251">
        <ele>1695.06</ele>
        <time>2014-09-27T07:29:26Z</time>
      </trkpt>
      <trkpt lat="45.05173" lon="5.89271">
        <ele>1692.56</ele>
        <time>2014-09-27T07:30:00Z</time>
      </trkpt>
      <trkpt lat="45.05169" lon="5.89298">
        <ele>1697.07</ele>
        <time>2014-09-27T07:30:18Z</time>
      </trkpt>
      <trkpt lat="45.05169" lon="5.89324">
        <ele>1701.19</ele>
        <time>2014-09-27T07:30:37Z</time>
      </trkpt>
      <trkpt lat="45.05172" lon="5.8935">
        <ele>1696.9</ele>
        <time>2014-09-27T07:30:56Z</time>
      </trkpt>
      <trkpt lat="45.05165" lon="5.89374">
        <ele>1692.46</ele>
        <time>2014-09-27T07:31:20Z</time>
      </trkpt>
      <trkpt lat="45.05165" lon="5.89401">
        <ele>1689.65</ele>
        <time>2014-09-27T07:31:48Z</time>
      </trkpt>
      <trkpt lat="45.05169" lon="5.89426">
        <ele>1695.35</ele>
        <time>2014-09-27T07:32:05Z</time>
      </trkpt>
      <trkpt lat="45.05165" lon="5.89453">
        <ele>1690.02</ele>
        <time>2014-09-27T07:32:30Z</time>
      </trkpt>
      <trkpt lat="45.05156" lon="5.89476">
        <ele>1684.28</ele>
        <time>2014-09-27T07:32:43Z</time>
      </trkpt>
      <trkpt lat="45.05156" lon="5.89503">
        <ele>1677.87</ele>
        <time>2014-09-27T07:33:03Z</time>
      </trkpt>
      <trkpt lat="45.05152" lon="5.89529">
        <ele>1684.58</ele>
        <time>2014-09-27T07:33:17Z</time>
      </trkpt>
      <trkpt lat="45.05166" lon="5.89545">
        <ele>1686.92</ele>
        <time>2014-09-27T07:33:32Z</time>
      </trkpt>
      <trkpt lat="45.05185" lon="5.89551">
        <ele>1687.23</ele>
        <time>2014-09-27T07:33:47Z</time>
      </trkpt>
      <trkpt lat="45.05203" lon="5.89558">
        <ele>1686.34</ele>
        <time>2014-09-27T07:34:04Z</time>
      </trkpt>
      <trkpt lat="45.05205" lon="5.89585">
        <ele>1682.75</ele>
        <time>2014-09-27T07:34:22Z</time>
      </trkpt>
      <trkpt lat="45.05208" lon="5.89611">
        <ele>1681.75</ele>
        <time>2014-09-27T07:34:37Z</time>
      </trkpt>
      <trkpt lat="45.05214" lon="5.89636">
        <ele>1680.13</ele>
        <time>2014-09-27T07:34:53Z</time>
      </trkpt>
      <trkpt lat="45.05217" lon="5.89662">
        <ele>1679.17</ele>
        <time>2014-09-27T07:35:09Z</time>
      </trkpt>
      <trkpt lat="45.05227" lon="5.89683">
        <ele>1675.47</ele>
        <time>2014-09-27T07:35:24Z</time>
      </trkpt>
      <trkpt lat="45.05232" lon="5.89709">
        <ele>1672.58</ele>
        <time>2014-09-27T07:35:42Z</time>
      </trkpt>
      <trkpt lat="45.05235" lon="5.89736">
        <ele>1672.05</ele>
        <time>2014-09-27T07:35:58Z</time>
      </trkpt>
      <trkpt lat="45.05236" lon="5.89762">
        <ele>1671.87</ele>
        <time>2014-09-27T07:36:15Z</time>
      </trkpt>
      <trkpt lat="45.05233" lon="5.89787">
        <ele>1671.65</ele>
        <time>2014-09-27T07:36:31Z</time>
      </trkpt>
      <trkpt lat="45.05235" lon="5.89813">
        <ele>1671.61</ele>
        <time>2014-09-27T07:36:47Z</time>
      </trkpt>
      <trkpt lat="45.05235" lon="5.89838">
        <ele>1669.98</ele>
        <time>2014-09-27T07:37:13Z</time>
      </trkpt>
      <trkpt lat="45.05235" lon="5.89864">
        <ele>1668.82</ele>
        <time>2014-09-27T07:37:30Z</time>
      </trkpt>
      <trkpt lat="45.05232" lon="5.89891">
        <ele>1660.35</ele>
        <time>2014-09-27T07:37:48Z</time>
      </trkpt>
      <trkpt lat="45.05231" lon="5.89917">
        <ele>1657.75</ele>
        <time>2014-09-27T07:38:11Z</time>
      </trkpt>
      <trkpt lat="45.05228" lon="5.89943">
        <ele>1655.42</ele>
        <time>2014-09-27T07:38:36Z</time>
      </trkpt>
      <trkpt lat="45.0523" lon="5.89969">
        <ele>1655.3</ele>
        <time>2014-09-27T07:38:54Z</time>
      </trkpt>
      <trkpt lat="45.05238" lon="5.89993">
        <ele>1656.28</ele>
        <time>2014-09-27T07:39:11Z</time>
      </trkpt>
      <trkpt lat="45.05251" lon="5.90012">
        <ele>1654.71</ele>
        <time>2014-09-27T07:39:28Z</time>
      </trkpt>
      <trkpt lat="45.05252" lon="5.90039">
        <ele>1655.18</ele>
        <time>2014-09-27T07:40:09Z</time>
      </trkpt>
      <trkpt lat="45.05237" lon="5.90055">
        <ele>1652.94</ele>
        <time>2014-09-27T07:40:38Z</time>
      </trkpt>
      <trkpt lat="45.0522" lon="5.90066">
        <ele>1652.48</ele>
        <time>2014-09-27T07:40:50Z</time>
      </trkpt>
      <trkpt lat="45.05205" lon="5.90081">
        <ele>1654.84</ele>
        <time>2014-09-27T07:41:12Z</time>
      </trkpt>
      <trkpt lat="45.05189" lon="5.90094">
        <ele>1652.96</ele>
        <time>2014-09-27T07:41:41Z</time>
      </trkpt>
      <trkpt lat="45.05187" lon="5.90121">
        <ele>1653.75</ele>
        <time>2014-09-27T07:42:03Z</time>
      </trkpt>
      <trkpt lat="45.05192" lon="5.90145">
        <ele>1659.94</ele>
        <time>2014-09-27T07:42:24Z</time>
      </trkpt>
      <trkpt lat="45.05183" lon="5.90169">
        <ele>1663.06</ele>
        <time>2014-09-27T07:42:50Z</time>
      </trkpt>
      <trkpt lat="45.05169" lon="5.90186">
        <ele>1665.17</ele>
        <time>2014-09-27T07:43:12Z</time>
      </trkpt>
      <trkpt lat="45.05159" lon="5.90207">
        <ele>1669.49</ele>
        <time>2014-09-27T07:43:30Z</time>
      </trkpt>
      <trkpt lat="45.05153" lon="5.90232">
        <ele>1670.41</ele>
        <time>2014-09-27T07:43:46Z</time>
      </trkpt>
      <trkpt lat="45.05156" lon="5.90257">
        <ele>1671.83</ele>
        <time>2014-09-27T07:44:14Z</time>
      </trkpt>
      <trkpt lat="45.05162" lon="5.90281">
        <ele>1671.82</ele>
        <time>2014-09-27T07:44:32Z</time>
      </trkpt>
      <trkpt lat="45.05168" lon="5.90307">
        <ele>1671.86</ele>
        <time>2014-09-27T07:44:49Z</time>
      </trkpt>
      <trkpt lat="45.05173" lon="5.90332">
        <ele>1673.95</ele>
        <time>2014-09-27T07:45:05Z</time>
      </trkpt>
      <trkpt lat="45.05175" lon="5.90358">
        <ele>1677.54</ele>
        <time>2014-09-27T07:45:18Z</time>
      </trkpt>
      <trkpt lat="45.05175" lon="5.90385">
        <ele>1682.24</ele>
        <time>2014-09-27T07:45:30Z</time>
      </trkpt>
      <trkpt lat="45.05168" lon="5.90408">
        <ele>1675.83</ele>
        <time>2014-09-27T07:45:51Z</time>
      </trkpt>
      <trkpt lat="45.0516" lon="5.90432">
        <ele>1677.74</ele>
        <time>2014-09-27T07:46:11Z</time>
      </trkpt>
      <trkpt lat="45.05157" lon="5.90458">
        <ele>1676.82</ele>
        <time>2014-09-27T07:46:29Z</time>
      </trkpt>
      <trkpt lat="45.05151" lon="5.90483">
        <ele>1678.96</ele>
        <time>2014-09-27T07:46:48Z</time>
      </trkpt>
      <trkpt lat="45.05148" lon="5.90509">
        <ele>1678.9</ele>
        <time>2014-09-27T07:47:07Z</time>
      </trkpt>
      <trkpt lat="45.0515" lon="5.90535">
        <ele>1680.17</ele>
        <time>2014-09-27T07:47:25Z</time>
      </trkpt>
      <trkpt lat="45.05145" lon="5.9056">
        <ele>1685.09</ele>
        <time>2014-09-27T07:47:49Z</time>
      </trkpt>
      <trkpt lat="45.05137" lon="5.90583">
        <ele>1689.08</ele>
        <time>2014-09-27T07:48:13Z</time>
      </trkpt>
      <trkpt lat="45.05133" lon="5.90608">
        <ele>1688.91</ele>
        <time>2014-09-27T07:48:34Z</time>
      </trkpt>
      <trkpt lat="45.05131" lon="5.90635">
        <ele>1699.13</ele>
        <time>2014-09-27T07:48:57Z</time>
      </trkpt>
      <trkpt lat="45.05131" lon="5.90662">
        <ele>1701.6</ele>
        <time>2014-09-27T07:49:19Z</time>
      </trkpt>
      <trkpt lat="45.05136" lon="5.90687">
        <ele>1704.64</ele>
        <time>2014-09-27T07:49:37Z</time>
      </trkpt>
      <trkpt lat="45.05136" lon="5.90713">
        <ele>1705.57</ele>
        <time>2014-09-27T07:49:58Z</time>
      </trkpt>
      <trkpt lat="45.05132" lon="5.90738">
        <ele>1710.37</ele>
        <time>2014-09-27T07:50:17Z</time>
      </trkpt>
      <trkpt lat="45.05128" lon="5.90764">
        <ele>1709.29</ele>
        <time>2014-09-27T07:50:44Z</time>
      </trkpt>
      <trkpt lat="45.05123" lon="5.90789">
        <ele>1712.47</ele>
        <time>2014-09-27T07:51:05Z</time>
      </trkpt>
      <trkpt lat="45.05113" lon="5.90811">
        <ele>1715.65</ele>
        <time>2014-09-27T07:51:39Z</time>
      </trkpt>
      <trkpt lat="45.05109" lon="5.90836">
        <ele>1719.47</ele>
        <time>2014-09-27T07:52:12Z</time>
      </trkpt>
      <trkpt lat="45.05105" lon="5.90861">
        <ele>1723.38</ele>
        <time>2014-09-27T07:52:31Z</time>
      </trkpt>
      <trkpt lat="45.05104" lon="5.90888">
        <ele>1732.48</ele>
        <time>2014-09-27T07:52:51Z</time>
      </trkpt>
      <trkpt lat="45.05101" lon="5.90914">
        <ele>1734.27</ele>
        <time>2014-09-27T07:53:11Z</time>
      </trkpt>
      <trkpt lat="45.0509" lon="5.90934">
        <ele>1735.74</ele>
        <time>2014-09-27T07:53:37Z</time>
      </trkpt>
      <trkpt lat="45.05084" lon="5.90958">
        <ele>1741.65</ele>
        <time>2014-09-27T07:54:35Z</time>
      </trkpt>
      <trkpt lat="45.05079" lon="5.90984">
        <ele>1740.02</ele>
        <time>2014-09-27T07:54:56Z</time>
      </trkpt>
      <trkpt lat="45.05074" lon="5.91009">
        <ele>1735.93</ele>
        <time>2014-09-27T07:55:20Z</time>
      </trkpt>
      <trkpt lat="45.05069" lon="5.91035">
        <ele>1733.43</ele>
        <time>2014-09-27T07:55:42Z</time>
      </trkpt>
      <trkpt lat="45.05064" lon="5.9106">
        <ele>1732.84</ele>
        <time>2014-09-27T07:55:56Z</time>
      </trkpt>
      <trkpt lat="45.05056" lon="5.91085">
        <ele>1733.72</ele>
        <time>2014-09-27T07:56:21Z</time>
      </trkpt>
      <trkpt lat="45.05048" lon="5.91109">
        <ele>1736.29</ele>
        <time>2014-09-27T07:56:48Z</time>
      </trkpt>
      <trkpt lat="45.05048" lon="5.91135">
        <ele>1744.18</ele>
        <time>2014-09-27T07:57:10Z</time>
      </trkpt>
      <trkpt lat="45.05056" lon="5.91159">
        <ele>1751.12</ele>
        <time>2014-09-27T07:57:31Z</time>
      </trkpt>
      <trkpt lat="45.0506" lon="5.91184">
        <ele>1756.11</ele>
        <time>2014-09-27T07:58:20Z</time>
      </trkpt>
      <trkpt lat="45.05064" lon="5.91209">
        <ele>1758.82</ele>
        <time>2014-09-27T07:58:49Z</time>
      </trkpt>
      <trkpt lat="45.05065" lon="5.91235">
        <ele>1761.82</ele>
        <time>2014-09-27T07:59:33Z</time>
      </trkpt>
      <trkpt lat="45.05071" lon="5.91259">
        <ele>1766.22</ele>
        <time>2014-09-27T08:00:11Z</time>
      </trkpt>
      <trkpt lat="45.05072" lon="5.91286">
        <ele>1767.88</ele>
        <time>2014-09-27T08:01:07Z</time>
      </trkpt>
      <trkpt lat="45.0508" lon="5.91309">
        <ele>1776.82</ele>
        <time>2014-09-27T08:01:29Z</time>
      </trkpt>
      <trkpt lat="45.05084" lon="5.91335">
        <ele>1787.08</ele>
        <time>2014-09-27T08:03:33Z</time>
      </trkpt>
      <trkpt lat="45.051" lon="5.91348">
        <ele>1791.13</ele>
        <time>2014-09-27T08:04:02Z</time>
      </trkpt>
      <trkpt lat="45.05118" lon="5.91356">
        <ele>1791.12</ele>
        <time>2014-09-27T08:04:16Z</time>
      </trkpt>
      <trkpt lat="45.05133" lon="5.9137">
        <ele>1793.29</ele>
        <time>2014-09-27T08:04:34Z</time>
      </trkpt>
      <trkpt lat="45.05147" lon="5.91386">
        <ele>1792.72</ele>
        <time>2014-09-27T08:04:57Z</time>
      </trkpt>
      <trkpt lat="45.05155" lon="5.9141">
        <ele>1792.73</ele>
        <time>2014-09-27T08:05:22Z</time>
      </trkpt>
      <trkpt lat="45.0516" lon="5.91436">
        <ele>1795.21</ele>
        <time>2014-09-27T08:05:40Z</time>
      </trkpt>
      <trkpt lat="45.05162" lon="5.91462">
        <ele>1797.17</ele>
        <time>2014-09-27T08:05:57Z</time>
      </trkpt>
      <trkpt lat="45.05161" lon="5.91488">
        <ele>1803.67</ele>
        <time>2014-09-27T08:06:23Z</time>
      </trkpt>
      <trkpt lat="45.05169" lon="5.91512">
        <ele>1807.07</ele>
        <time>2014-09-27T08:06:39Z</time>
      </trkpt>
      <trkpt lat="45.05176" lon="5.91536">
        <ele>1812.99</ele>
        <time>2014-09-27T08:07:04Z</time>
      </trkpt>
      <trkpt lat="45.05187" lon="5.91557">
        <ele>1823.35</ele>
        <time>2014-09-27T08:07:45Z</time>
      </trkpt>
      <trkpt lat="45.05191" lon="5.91582">
        <ele>1830.47</ele>
        <time>2014-09-27T08:08:20Z</time>
      </trkpt>
      <trkpt lat="45.05187" lon="5.91608">
        <ele>1832.02</ele>
        <time>2014-09-27T08:09:05Z</time>
      </trkpt>
      <trkpt lat="45.0519" lon="5.91634">
        <ele>1834.68</ele>
        <time>2014-09-27T08:09:38Z</time>
      </trkpt>
      <trkpt lat="45.0519" lon="5.91659">
        <ele>1837.7</ele>
        <time>2014-09-27T08:10:07Z</time>
      </trkpt>
      <trkpt lat="45.05186" lon="5.91684">
        <ele>1843.17</ele>
        <time>2014-09-27T08:10:43Z</time>
      </trkpt>
      <trkpt lat="45.0519" lon="5.91709">
        <ele>1848.47</ele>
        <time>2014-09-27T08:11:17Z</time>
      </trkpt>
      <trkpt lat="45.052" lon="5.9173">
        <ele>1853.3</ele>
        <time>2014-09-27T08:12:42Z</time>
      </trkpt>
      <trkpt lat="45.05199" lon="5.91756">
        <ele>1857.91</ele>
        <time>2014-09-27T08:13:29Z</time>
      </trkpt>
      <trkpt lat="45.05198" lon="5.91783">
        <ele>1870.18</ele>
        <time>2014-09-27T08:14:04Z</time>
      </trkpt>
      <trkpt lat="45.05203" lon="5.91807">
        <ele>1878.22</ele>
        <time>2014-09-27T08:14:52Z</time>
      </trkpt>
      <trkpt lat="45.05196" lon="5.91832">
        <ele>1879.31</ele>
        <time>2014-09-27T08:15:35Z</time>
      </trkpt>
      <trkpt lat="45.052" lon="5.91858">
        <ele>1883.41</ele>
        <time>2014-09-27T08:16:03Z</time>
      </trkpt>
      <trkpt lat="45.05205" lon="5.91882">
        <ele>1889.12</ele>
        <time>2014-09-27T08:16:31Z</time>
      </trkpt>
      <trkpt lat="45.05214" lon="5.91905">
        <ele>1894.55</ele>
        <time>2014-09-27T08:17:25Z</time>
      </trkpt>
      <trkpt lat="45.05218" lon="5.9193">
        <ele>1900.63</ele>
        <time>2014-09-27T08:18:33Z</time>
      </trkpt>
      <trkpt lat="45.05227" lon="5.91952">
        <ele>1905.6</ele>
        <time>2014-09-27T08:19:09Z</time>
      </trkpt>
      <trkpt lat="45.05235" lon="5.91976">
        <ele>1910.4</ele>
        <time>2014-09-27T08:20:19Z</time>
      </trkpt>
      <trkpt lat="45.05247" lon="5.91995">
        <ele>1915.4</ele>
        <time>2014-09-27T08:20:45Z</time>
      </trkpt>
      <trkpt lat="45.05249" lon="5.9202">
        <ele>1924.07</ele>
        <time>2014-09-27T08:21:30Z</time>
      </trkpt>
      <trkpt lat="45.05259" lon="5.92042">
        <ele>1935.09</ele>
        <time>2014-09-27T08:22:22Z</time>
      </trkpt>
      <trkpt lat="45.05273" lon="5.92059">
        <ele>1940.41</ele>
        <time>2014-09-27T08:22:56Z</time>
      </trkpt>
      <trkpt lat="45.0529" lon="5.9207">
        <ele>1945.77</ele>
        <time>2014-09-27T08:23:43Z</time>
      </trkpt>
      <trkpt lat="45.05302" lon="5.9209">
        <ele>1952.37</ele>
        <time>2014-09-27T08:24:13Z</time>
      </trkpt>
      <trkpt lat="45.0531" lon="5.92114">
        <ele>1960.5</ele>
        <time>2014-09-27T08:24:46Z</time>
      </trkpt>
      <trkpt lat="45.05323" lon="5.92131">
        <ele>1967.86</ele>
        <time>2014-09-27T08:25:23Z</time>
      </trkpt>
      <trkpt lat="45.05338" lon="5.92147">
        <ele>1975.18</ele>
        <time>2014-09-27T08:26:31Z</time>
      </trkpt>
      <trkpt lat="45.05352" lon="5.92163">
        <ele>1982.28</ele>
        <time>2014-09-27T08:27:12Z</time>
      </trkpt>
      <trkpt lat="45.05338" lon="5.9218">
        <ele>1988.26</ele>
        <time>2014-09-27T08:28:10Z</time>
      </trkpt>
      <trkpt lat="45.0532" lon="5.92183">
        <ele>1991.83</ele>
        <time>2014-09-27T08:28:50Z</time>
      </trkpt>
      <trkpt lat="45.05302" lon="5.92187">
        <ele>2000.74</ele>
        <time>2014-09-27T08:29:39Z</time>
      </trkpt>
      <trkpt lat="45.05283" lon="5.9219">
        <ele>2008.66</ele>
        <time>2014-09-27T08:30:34Z</time>
      </trkpt>
      <trkpt lat="45.05266" lon="5.92197">
        <ele>2015.83</ele>
        <time>2014-09-27T08:31:09Z</time>
      </trkpt>
      <trkpt lat="45.05247" lon="5.92201">
        <ele>2021.21</ele>
        <time>2014-09-27T08:31:51Z</time>
      </trkpt>
      <trkpt lat="45.0523" lon="5.92207">
        <ele>2025.57</ele>
        <time>2014-09-27T08:32:25Z</time>
      </trkpt>
      <trkpt lat="45.05236" lon="5.92231">
        <ele>2045.84</ele>
        <time>2014-09-27T08:33:34Z</time>
      </trkpt>
      <trkpt lat="45.05251" lon="5.92249">
        <ele>2048.32</ele>
        <time>2014-09-27T08:34:12Z</time>
      </trkpt>
      <trkpt lat="45.05251" lon="5.92275">
        <ele>2053.74</ele>
        <time>2014-09-27T08:35:52Z</time>
      </trkpt>
      <trkpt lat="45.05258" lon="5.923">
        <ele>2056.11</ele>
        <time>2014-09-27T08:36:15Z</time>
      </trkpt>
      <trkpt lat="45.05252" lon="5.92326">
        <ele>2056.76</ele>
        <time>2014-09-27T08:36:35Z</time>
      </trkpt>
      <trkpt lat="45.05235" lon="5.92335">
        <ele>2058.41</ele>
        <time>2014-09-27T08:36:51Z</time>
      </trkpt>
      <trkpt lat="45.05228" lon="5.9236">
        <ele>2060.11</ele>
        <time>2014-09-27T08:37:11Z</time>
      </trkpt>
      <trkpt lat="45.05224" lon="5.92385">
        <ele>2060.04</ele>
        <time>2014-09-27T08:37:34Z</time>
      </trkpt>
      <trkpt lat="45.05225" lon="5.92412">
        <ele>2061.23</ele>
        <time>2014-09-27T08:37:52Z</time>
      </trkpt>
      <trkpt lat="45.05224" lon="5.92438">
        <ele>2059.94</ele>
        <time>2014-09-27T08:38:12Z</time>
      </trkpt>
      <trkpt lat="45.05219" lon="5.92413">
        <ele>2056.83</ele>
        <time>2014-09-27T08:39:56Z</time>
      </trkpt>
      <trkpt lat="45.05218" lon="5.92387">
        <ele>2055.38</ele>
        <time>2014-09-27T08:40:10Z</time>
      </trkpt>
      <trkpt lat="45.05203" lon="5.92373">
        <ele>2056.6</ele>
        <time>2014-09-27T08:40:49Z</time>
      </trkpt>
      <trkpt lat="45.05185" lon="5.92373">
        <ele>2060.89</ele>
        <time>2014-09-27T08:41:40Z</time>
      </trkpt>
      <trkpt lat="45.05167" lon="5.92364">
        <ele>2072.73</ele>
        <time>2014-09-27T08:42:44Z</time>
      </trkpt>
      <trkpt lat="45.0515" lon="5.92374">
        <ele>2085.54</ele>
        <time>2014-09-27T08:43:54Z</time>
      </trkpt>
      <trkpt lat="45.05142" lon="5.92397">
        <ele>2090.68</ele>
        <time>2014-09-27T08:45:06Z</time>
      </trkpt>
      <trkpt lat="45.05126" lon="5.92408">
        <ele>2094.04</ele>
        <time>2014-09-27T08:45:41Z</time>
      </trkpt>
      <trkpt lat="45.05124" lon="5.92434">
        <ele>2103.33</ele>
        <time>2014-09-27T08:46:13Z</time>
      </trkpt>
      <trkpt lat="45.05108" lon="5.92446">
        <ele>2105.81</ele>
        <time>2014-09-27T08:46:44Z</time>
      </trkpt>
      <trkpt lat="45.05092" lon="5.92458">
        <ele>2107.85</ele>
        <time>2014-09-27T08:47:08Z</time>
      </trkpt>
      <trkpt lat="45.05087" lon="5.92482">
        <ele>2115.21</ele>
        <time>2014-09-27T08:47:52Z</time>
      </trkpt>
      <trkpt lat="45.05081" lon="5.92507">
        <ele>2120.23</ele>
        <time>2014-09-27T08:48:24Z</time>
      </trkpt>
      <trkpt lat="45.05074" lon="5.92531">
        <ele>2121.74</ele>
        <time>2014-09-27T08:49:11Z</time>
      </trkpt>
      <trkpt lat="45.05068" lon="5.92556">
        <ele>2133.28</ele>
        <time>2014-09-27T08:49:47Z</time>
      </trkpt>
      <trkpt lat="45.05066" lon="5.92582">
        <ele>2139.89</ele>
        <time>2014-09-27T08:50:12Z</time>
      </trkpt>
      <trkpt lat="45.05064" lon="5.92607">
        <ele>2145.16</ele>
        <time>2014-09-27T08:51:35Z</time>
      </trkpt>
      <trkpt lat="45.05059" lon="5.92632">
        <ele>2147.54</ele>
        <time>2014-09-27T08:52:26Z</time>
      </trkpt>
      <trkpt lat="45.05043" lon="5.92644">
        <ele>2158.33</ele>
        <time>2014-09-27T08:53:39Z</time>
      </trkpt>
      <trkpt lat="45.05025" lon="5.92641">
        <ele>2170.56</ele>
        <time>2014-09-27T08:54:17Z</time>
      </trkpt>
      <trkpt lat="45.05007" lon="5.92639">
        <ele>2175.99</ele>
        <time>2014-09-27T08:54:47Z</time>
      </trkpt>
      <trkpt lat="45.04991" lon="5.92653">
        <ele>2183.45</ele>
        <time>2014-09-27T08:56:38Z</time>
      </trkpt>
      <trkpt lat="45.04973" lon="5.92653">
        <ele>2192.77</ele>
        <time>2014-09-27T08:58:38Z</time>
      </trkpt>
      <trkpt lat="45.04956" lon="5.92645">
        <ele>2205.67</ele>
        <time>2014-09-27T08:59:51Z</time>
      </trkpt>
      <trkpt lat="45.04939" lon="5.92634">
        <ele>2220.79</ele>
        <time>2014-09-27T09:03:46Z</time>
      </trkpt>
      <trkpt lat="45.04921" lon="5.92636">
        <ele>2231.71</ele>
        <time>2014-09-27T09:04:30Z</time>
      </trkpt>
      <trkpt lat="45.04906" lon="5.9265">
        <ele>2241.37</ele>
        <time>2014-09-27T09:05:01Z</time>
      </trkpt>
      <trkpt lat="45.04887" lon="5.92646">
        <ele>2245.15</ele>
        <time>2014-09-27T09:05:37Z</time>
      </trkpt>
      <trkpt lat="45.04869" lon="5.92647">
        <ele>2245.87</ele>
        <time>2014-09-27T09:06:05Z</time>
      </trkpt>
      <trkpt lat="45.04851" lon="5.92645">
        <ele>2249.52</ele>
        <time>2014-09-27T09:06:32Z</time>
      </trkpt>
      <trkpt lat="45.04833" lon="5.92642">
        <ele>2252.45</ele>
        <time>2014-09-27T09:07:00Z</time>
      </trkpt>
      <trkpt lat="45.04818" lon="5.92657">
        <ele>2259.97</ele>
        <time>2014-09-27T09:07:31Z</time>
      </trkpt>
      <trkpt lat="45.04799" lon="5.92655">
        <ele>2270.86</ele>
        <time>2014-09-27T09:08:13Z</time>
      </trkpt>
      <trkpt lat="45.04782" lon="5.9266">
        <ele>2273.44</ele>
        <time>2014-09-27T09:11:18Z</time>
      </trkpt>
      <trkpt lat="45.04772" lon="5.92681">
        <ele>2278.78</ele>
        <time>2014-09-27T09:12:01Z</time>
      </trkpt>
      <trkpt lat="45.04756" lon="5.92668">
        <ele>2304.01</ele>
        <time>2014-09-27T09:13:37Z</time>
      </trkpt>
      <trkpt lat="45.04741" lon="5.92652">
        <ele>2316.65</ele>
        <time>2014-09-27T09:14:56Z</time>
      </trkpt>
      <trkpt lat="45.04724" lon="5.92662">
        <ele>2326.64</ele>
        <time>2014-09-27T09:16:12Z</time>
      </trkpt>
      <trkpt lat="45.04708" lon="5.92673">
        <ele>2339.12</ele>
        <time>2014-09-27T09:19:52Z</time>
      </trkpt>
      <trkpt lat="45.0469" lon="5.92677">
        <ele>2345.82</ele>
        <time>2014-09-27T09:20:58Z</time>
      </trkpt>
      <trkpt lat="45.04671" lon="5.92681">
        <ele>2347.8</ele>
        <time>2014-09-27T09:21:30Z</time>
      </trkpt>
      <trkpt lat="45.04653" lon="5.92685">
        <ele>2358.17</ele>
        <time>2014-09-27T09:22:14Z</time>
      </trkpt>
      <trkpt lat="45.04635" lon="5.9269">
        <ele>2363.69</ele>
        <time>2014-09-27T09:27:48Z</time>
      </trkpt>
      <trkpt lat="45.04618" lon="5.92681">
        <ele>2368.76</ele>
        <time>2014-09-27T09:28:17Z</time>
      </trkpt>
      <trkpt lat="45.04605" lon="5.92662">
        <ele>2379.38</ele>
        <time>2014-09-27T09:29:00Z</time>
      </trkpt>
      <trkpt lat="45.04588" lon="5.92654">
        <ele>2388.04</ele>
        <time>2014-09-27T09:29:42Z</time>
      </trkpt>
      <trkpt lat="45.04572" lon="5.92641">
        <ele>2389.15</ele>
        <time>2014-09-27T09:30:20Z</time>
      </trkpt>
      <trkpt lat="45.04558" lon="5.92624">
        <ele>2390.23</ele>
        <time>2014-09-27T09:30:57Z</time>
      </trkpt>
      <trkpt lat="45.04548" lon="5.92603">
        <ele>2397.18</ele>
        <time>2014-09-27T09:31:45Z</time>
      </trkpt>
      <trkpt lat="45.04537" lon="5.92582">
        <ele>2404.34</ele>
        <time>2014-09-27T09:32:33Z</time>
      </trkpt>
      <trkpt lat="45.0453" lon="5.92558">
        <ele>2416.01</ele>
        <time>2014-09-27T09:33:17Z</time>
      </trkpt>
      <trkpt lat="45.0452" lon="5.92537">
        <ele>2422.99</ele>
        <time>2014-09-27T09:34:03Z</time>
      </trkpt>
      <trkpt lat="45.04506" lon="5.92519">
        <ele>2437.43</ele>
        <time>2014-09-27T09:35:01Z</time>
      </trkpt>
      <trkpt lat="45.04493" lon="5.92502">
        <ele>2449.23</ele>
        <time>2014-09-27T09:35:53Z</time>
      </trkpt>
      <trkpt lat="45.04482" lon="5.92481">
        <ele>2461.64</ele>
        <time>2014-09-27T09:36:41Z</time>
      </trkpt>
      <trkpt lat="45.0447" lon="5.92462">
        <ele>2461.83</ele>
        <time>2014-09-27T09:37:27Z</time>
      </trkpt>
      <trkpt lat="45.04452" lon="5.92465">
        <ele>2469.76</ele>
        <time>2014-09-27T09:38:02Z</time>
      </trkpt>
      <trkpt lat="45.04447" lon="5.92441">
        <ele>2479.31</ele>
        <time>2014-09-27T09:39:11Z</time>
      </trkpt>
      <trkpt lat="45.04431" lon="5.92429">
        <ele>2482.23</ele>
        <time>2014-09-27T09:40:56Z</time>
      </trkpt>
      <trkpt lat="45.04413" lon="5.92432">
        <ele>2492.55</ele>
        <time>2014-09-27T09:41:26Z</time>
      </trkpt>
      <trkpt lat="45.04395" lon="5.92431">
        <ele>2498.61</ele>
        <time>2014-09-27T09:42:14Z</time>
      </trkpt>
      <trkpt lat="45.04378" lon="5.9242">
        <ele>2503.73</ele>
        <time>2014-09-27T09:42:55Z</time>
      </trkpt>
      <trkpt lat="45.04364" lon="5.92404">
        <ele>2514.98</ele>
        <time>2014-09-27T09:44:02Z</time>
      </trkpt>
      <trkpt lat="45.04355" lon="5.92382">
        <ele>2522.6</ele>
        <time>2014-09-27T09:52:03Z</time>
      </trkpt>
      <trkpt lat="45.0435" lon="5.92357">
        <ele>2533.91</ele>
        <time>2014-09-27T09:53:51Z</time>
      </trkpt>
      <trkpt lat="45.04351" lon="5.92331">
        <ele>2554.22</ele>
        <time>2014-09-27T09:54:48Z</time>
      </trkpt>
      <trkpt lat="45.04342" lon="5.92309">
        <ele>2559.26</ele>
        <time>2014-09-27T09:55:34Z</time>
      </trkpt>
      <trkpt lat="45.04335" lon="5.92285">
        <ele>2586.9</ele>
        <time>2014-09-27T10:00:13Z</time>
      </trkpt>
      <trkpt lat="45.0433" lon="5.92261">
        <ele>2593.51</ele>
        <time>2014-09-27T10:01:22Z</time>
      </trkpt>
      <trkpt lat="45.04323" lon="5.92237">
        <ele>2606.79</ele>
        <time>2014-09-27T10:02:10Z</time>
      </trkpt>
      <trkpt lat="45.04318" lon="5.92212">
        <ele>2621.85</ele>
        <time>2014-09-27T10:03:26Z</time>
      </trkpt>
      <trkpt lat="45.043" lon="5.92205">
        <ele>2626.36</ele>
        <time>2014-09-27T10:04:04Z</time>
      </trkpt>
      <trkpt lat="45.04283" lon="5.92197">
        <ele>2635.07</ele>
        <time>2014-09-27T10:05:21Z</time>
      </trkpt>
      <trkpt lat="45.04267" lon="5.92185">
        <ele>2659.33</ele>
        <time>2014-09-27T10:11:09Z</time>
      </trkpt>
      <trkpt lat="45.04249" lon="5.92178">
        <ele>2663.63</ele>
        <time>2014-09-27T10:11:34Z</time>
      </trkpt>
      <trkpt lat="45.04232" lon="5.9217">
        <ele>2675.12</ele>
        <time>2014-09-27T10:12:38Z</time>
      </trkpt>
      <trkpt lat="45.04214" lon="5.92168">
        <ele>2689.5</ele>
        <time>2014-09-27T10:13:21Z</time>
      </trkpt>
      <trkpt lat="45.04195" lon="5.92167">
        <ele>2694.54</ele>
        <time>2014-09-27T10:13:55Z</time>
      </trkpt>
      <trkpt lat="45.04178" lon="5.92158">
        <ele>2695.42</ele>
        <time>2014-09-27T10:14:22Z</time>
      </trkpt>
      <trkpt lat="45.04164" lon="5.92142">
        <ele>2694.23</ele>
        <time>2014-09-27T10:14:52Z</time>
      </trkpt>
      <trkpt lat="45.04154" lon="5.9212">
        <ele>2708.14</ele>
        <time>2014-09-27T10:15:15Z</time>
      </trkpt>
      <trkpt lat="45.04137" lon="5.92113">
        <ele>2715.17</ele>
        <time>2014-09-27T10:15:42Z</time>
      </trkpt>
      <trkpt lat="45.0412" lon="5.92102">
        <ele>2719.4</ele>
        <time>2014-09-27T10:16:02Z</time>
      </trkpt>
      <trkpt lat="45.04105" lon="5.92086">
        <ele>2723.21</ele>
        <time>2014-09-27T10:16:23Z</time>
      </trkpt>
      <trkpt lat="45.04097" lon="5.92063">
        <ele>2732.51</ele>
        <time>2014-09-27T10:16:48Z</time>
      </trkpt>
      <trkpt lat="45.04081" lon="5.92051">
        <ele>2734.71</ele>
        <time>2014-09-27T10:17:11Z</time>
      </trkpt>
      <trkpt lat="45.04062" lon="5.92049">
        <ele>2737.92</ele>
        <time>2014-09-27T10:17:34Z</time>
      </trkpt>
      <trkpt lat="45.04045" lon="5.92043">
        <ele>2740.66</ele>
        <time>2014-09-27T10:17:54Z</time>
      </trkpt>
      <trkpt lat="45.04026" lon="5.92046">
        <ele>2744.32</ele>
        <time>2014-09-27T10:18:18Z</time>
      </trkpt>
      <trkpt lat="45.04017" lon="5.92069">
        <ele>2744.35</ele>
        <time>2014-09-27T10:18:37Z</time>
      </trkpt>
      <trkpt lat="45.0401" lon="5.92092">
        <ele>2747.64</ele>
        <time>2014-09-27T10:19:00Z</time>
      </trkpt>
      <trkpt lat="45.03993" lon="5.92102">
        <ele>2751.7</ele>
        <time>2014-09-27T10:19:30Z</time>
      </trkpt>
      <trkpt lat="45.03982" lon="5.92123">
        <ele>2756.6</ele>
        <time>2014-09-27T10:20:00Z</time>
      </trkpt>
      <trkpt lat="45.03971" lon="5.92143">
        <ele>2760.83</ele>
        <time>2014-09-27T10:20:28Z</time>
      </trkpt>
      <trkpt lat="45.03954" lon="5.92153">
        <ele>2765.91</ele>
        <time>2014-09-27T10:20:56Z</time>
      </trkpt>
      <trkpt lat="45.03936" lon="5.92158">
        <ele>2774.23</ele>
        <time>2014-09-27T10:21:32Z</time>
      </trkpt>
      <trkpt lat="45.03927" lon="5.9218">
        <ele>2784.26</ele>
        <time>2014-09-27T10:22:33Z</time>
      </trkpt>
      <trkpt lat="45.03916" lon="5.92201">
        <ele>2797.41</ele>
        <time>2014-09-27T10:23:23Z</time>
      </trkpt>
      <trkpt lat="45.03902" lon="5.92217">
        <ele>2803.61</ele>
        <time>2014-09-27T10:24:30Z</time>
      </trkpt>
      <trkpt lat="45.03892" lon="5.92239">
        <ele>2817.8</ele>
        <time>2014-09-27T10:26:10Z</time>
      </trkpt>
      <trkpt lat="45.03879" lon="5.92256">
        <ele>2828.48</ele>
        <time>2014-09-27T10:27:00Z</time>
      </trkpt>
      <trkpt lat="45.03879" lon="5.92282">
        <ele>2843.7</ele>
        <time>2014-09-27T10:27:49Z</time>
      </trkpt>
      <trkpt lat="45.03888" lon="5.92305">
        <ele>2850.47</ele>
        <time>2014-09-27T10:28:05Z</time>
      </trkpt>
      <trkpt lat="45.039" lon="5.92324">
        <ele>2853.3</ele>
        <time>2014-09-27T10:28:23Z</time>
      </trkpt>
      <trkpt lat="45.03911" lon="5.92345">
        <ele>2854.64</ele>
        <time>2014-09-27T10:28:41Z</time>
      </trkpt>
      <trkpt lat="45.03921" lon="5.92366">
        <ele>2855.48</ele>
        <time>2014-09-27T10:28:57Z</time>
      </trkpt>
      <trkpt lat="45.0393" lon="5.92389">
        <ele>2858.65</ele>
        <time>2014-09-27T10:29:16Z</time>
      </trkpt>
      <trkpt lat="45.0394" lon="5.9241">
        <ele>2862.01</ele>
        <time>2014-09-27T10:29:43Z</time>
      </trkpt>
      <trkpt lat="45.03959" lon="5.92412">
        <ele>2859.31</ele>
        <time>2014-09-27T10:36:17Z</time>
      </trkpt>
      <trkpt lat="45.0395" lon="5.9239">
        <ele>2858.55</ele>
        <time>2014-09-27T10:48:10Z</time>
      </trkpt>
      <trkpt lat="45.0394" lon="5.92367">
        <ele>2857.48</ele>
        <time>2014-09-27T10:48:29Z</time>
      </trkpt>
      <trkpt lat="45.03952" lon="5.92386">
        <ele>2858.84</ele>
        <time>2014-09-27T10:49:37Z</time>
      </trkpt>
      <trkpt lat="45.03963" lon="5.92407">
        <ele>2858.56</ele>
        <time>2014-09-27T10:50:18Z</time>
      </trkpt>
      <trkpt lat="45.0395" lon="5.92389">
        <ele>2858.69</ele>
        <time>2014-09-27T10:55:10Z</time>
      </trkpt>
      <trkpt lat="45.03935" lon="5.92375">
        <ele>2858.89</ele>
        <time>2014-09-27T10:55:33Z</time>
      </trkpt>
      <trkpt lat="45.0392" lon="5.92359">
        <ele>2856.8</ele>
        <time>2014-09-27T10:55:50Z</time>
      </trkpt>
      <trkpt lat="45.03909" lon="5.92337">
        <ele>2856.48</ele>
        <time>2014-09-27T10:56:04Z</time>
      </trkpt>
      <trkpt lat="45.03898" lon="5.92316">
        <ele>2855.96</ele>
        <time>2014-09-27T10:56:18Z</time>
      </trkpt>
      <trkpt lat="45.03887" lon="5.92296">
        <ele>2853.13</ele>
        <time>2014-09-27T10:56:34Z</time>
      </trkpt>
      <trkpt lat="45.03874" lon="5.92278">
        <ele>2849.2</ele>
        <time>2014-09-27T10:56:59Z</time>
      </trkpt>
      <trkpt lat="45.03886" lon="5.92297">
        <ele>2848.88</ele>
        <time>2014-09-27T10:59:39Z</time>
      </trkpt>
      <trkpt lat="45.03897" lon="5.92318">
        <ele>2849.97</ele>
        <time>2014-09-27T11:00:08Z</time>
      </trkpt>
      <trkpt lat="45.03908" lon="5.92339">
        <ele>2852.35</ele>
        <time>2014-09-27T11:00:33Z</time>
      </trkpt>
      <trkpt lat="45.0392" lon="5.92359">
        <ele>2851</ele>
        <time>2014-09-27T11:01:05Z</time>
      </trkpt>
      <trkpt lat="45.03931" lon="5.92379">
        <ele>2853.78</ele>
        <time>2014-09-27T11:01:34Z</time>
      </trkpt>
      <trkpt lat="45.03945" lon="5.92397">
        <ele>2855.35</ele>
        <time>2014-09-27T11:02:54Z</time>
      </trkpt>
      <trkpt lat="45.03937" lon="5.92421">
        <ele>2855.42</ele>
        <time>2014-09-27T11:07:10Z</time>
      </trkpt>
      <trkpt lat="45.03955" lon="5.92414">
        <ele>2856.62</ele>
        <time>2014-09-27T11:18:50Z</time>
      </trkpt>
      <trkpt lat="45.03973" lon="5.92411">
        <ele>2856.73</ele>
        <time>2014-09-27T11:19:09Z</time>
      </trkpt>
      <trkpt lat="45.03955" lon="5.92415">
        <ele>2858.07</ele>
        <time>2014-09-27T11:21:32Z</time>
      </trkpt>
      <trkpt lat="45.03968" lon="5.92398">
        <ele>2858.57</ele>
        <time>2014-09-27T11:34:24Z</time>
      </trkpt>
      <trkpt lat="45.03953" lon="5.92413">
        <ele>2862.08</ele>
        <time>2014-09-27T11:38:09Z</time>
      </trkpt>
      <trkpt lat="45.03946" lon="5.92387">
        <ele>2858.2</ele>
        <time>2014-09-27T11:40:10Z</time>
      </trkpt>
      <trkpt lat="45.0393" lon="5.92375">
        <ele>2857.07</ele>
        <time>2014-09-27T11:40:24Z</time>
      </trkpt>
      <trkpt lat="45.03917" lon="5.92356">
        <ele>2855.32</ele>
        <time>2014-09-27T11:40:34Z</time>
      </trkpt>
      <trkpt lat="45.03905" lon="5.92335">
        <ele>2853.88</ele>
        <time>2014-09-27T11:40:40Z</time>
      </trkpt>
      <trkpt lat="45.03892" lon="5.92315">
        <ele>2859.76</ele>
        <time>2014-09-27T11:40:49Z</time>
      </trkpt>
      <trkpt lat="45.03883" lon="5.92292">
        <ele>2854.01</ele>
        <time>2014-09-27T11:41:25Z</time>
      </trkpt>
      <trkpt lat="45.0387" lon="5.92274">
        <ele>2850.95</ele>
        <time>2014-09-27T11:41:43Z</time>
      </trkpt>
      <trkpt lat="45.03883" lon="5.92255">
        <ele>2830.29</ele>
        <time>2014-09-27T11:43:17Z</time>
      </trkpt>
      <trkpt lat="45.039" lon="5.92242">
        <ele>2820.24</ele>
        <time>2014-09-27T11:43:43Z</time>
      </trkpt>
      <trkpt lat="45.0391" lon="5.92221">
        <ele>2805.95</ele>
        <time>2014-09-27T11:44:21Z</time>
      </trkpt>
      <trkpt lat="45.03922" lon="5.92202">
        <ele>2790.76</ele>
        <time>2014-09-27T11:45:08Z</time>
      </trkpt>
      <trkpt lat="45.03929" lon="5.92177">
        <ele>2780.05</ele>
        <time>2014-09-27T11:46:07Z</time>
      </trkpt>
      <trkpt lat="45.03937" lon="5.92153">
        <ele>2770.3</ele>
        <time>2014-09-27T11:46:52Z</time>
      </trkpt>
      <trkpt lat="45.03945" lon="5.9213">
        <ele>2757.45</ele>
        <time>2014-09-27T11:47:12Z</time>
      </trkpt>
      <trkpt lat="45.03939" lon="5.92106">
        <ele>2754.53</ele>
        <time>2014-09-27T11:47:39Z</time>
      </trkpt>
      <trkpt lat="45.03923" lon="5.9209">
        <ele>2756.19</ele>
        <time>2014-09-27T11:47:53Z</time>
      </trkpt>
      <trkpt lat="45.03918" lon="5.92063">
        <ele>2748.91</ele>
        <time>2014-09-27T11:48:01Z</time>
      </trkpt>
      <trkpt lat="45.03903" lon="5.92046">
        <ele>2743.46</ele>
        <time>2014-09-27T11:48:21Z</time>
      </trkpt>
      <trkpt lat="45.03888" lon="5.92031">
        <ele>2736.65</ele>
        <time>2014-09-27T11:48:39Z</time>
      </trkpt>
      <trkpt lat="45.03876" lon="5.92009">
        <ele>2729.64</ele>
        <time>2014-09-27T11:49:02Z</time>
      </trkpt>
      <trkpt lat="45.03879" lon="5.91982">
        <ele>2722.8</ele>
        <time>2014-09-27T11:49:31Z</time>
      </trkpt>
      <trkpt lat="45.03868" lon="5.91961">
        <ele>2718.21</ele>
        <time>2014-09-27T11:49:53Z</time>
      </trkpt>
      <trkpt lat="45.03863" lon="5.91933">
        <ele>2714.45</ele>
        <time>2014-09-27T11:50:20Z</time>
      </trkpt>
      <trkpt lat="45.03855" lon="5.9191">
        <ele>2720.79</ele>
        <time>2014-09-27T11:50:30Z</time>
      </trkpt>
      <trkpt lat="45.03855" lon="5.91884">
        <ele>2708.27</ele>
        <time>2014-09-27T11:50:50Z</time>
      </trkpt>
      <trkpt lat="45.03869" lon="5.91866">
        <ele>2707.62</ele>
        <time>2014-09-27T11:51:06Z</time>
      </trkpt>
      <trkpt lat="45.03877" lon="5.91841">
        <ele>2701.65</ele>
        <time>2014-09-27T11:51:25Z</time>
      </trkpt>
      <trkpt lat="45.03888" lon="5.91821">
        <ele>2693.79</ele>
        <time>2014-09-27T11:51:46Z</time>
      </trkpt>
      <trkpt lat="45.03901" lon="5.91802">
        <ele>2686.9</ele>
        <time>2014-09-27T11:52:03Z</time>
      </trkpt>
      <trkpt lat="45.03908" lon="5.91778">
        <ele>2681.92</ele>
        <time>2014-09-27T11:52:22Z</time>
      </trkpt>
      <trkpt lat="45.03913" lon="5.91752">
        <ele>2673.25</ele>
        <time>2014-09-27T11:52:48Z</time>
      </trkpt>
      <trkpt lat="45.03923" lon="5.91729">
        <ele>2670.3</ele>
        <time>2014-09-27T11:53:04Z</time>
      </trkpt>
      <trkpt lat="45.03926" lon="5.91704">
        <ele>2667.69</ele>
        <time>2014-09-27T11:53:21Z</time>
      </trkpt>
      <trkpt lat="45.0392" lon="5.91677">
        <ele>2667.34</ele>
        <time>2014-09-27T11:53:41Z</time>
      </trkpt>
      <trkpt lat="45.03927" lon="5.91653">
        <ele>2668.97</ele>
        <time>2014-09-27T11:53:59Z</time>
      </trkpt>
      <trkpt lat="45.03936" lon="5.9163">
        <ele>2669.31</ele>
        <time>2014-09-27T11:54:26Z</time>
      </trkpt>
      <trkpt lat="45.03947" lon="5.91609">
        <ele>2674.65</ele>
        <time>2014-09-27T11:54:58Z</time>
      </trkpt>
      <trkpt lat="45.03958" lon="5.91588">
        <ele>2674.7</ele>
        <time>2014-09-27T11:55:28Z</time>
      </trkpt>
      <trkpt lat="45.03957" lon="5.91562">
        <ele>2680.04</ele>
        <time>2014-09-27T11:56:01Z</time>
      </trkpt>
      <trkpt lat="45.03956" lon="5.91536">
        <ele>2682.09</ele>
        <time>2014-09-27T11:56:24Z</time>
      </trkpt>
      <trkpt lat="45.03963" lon="5.91511">
        <ele>2683.88</ele>
        <time>2014-09-27T11:56:48Z</time>
      </trkpt>
      <trkpt lat="45.03962" lon="5.91486">
        <ele>2692.01</ele>
        <time>2014-09-27T11:57:14Z</time>
      </trkpt>
      <trkpt lat="45.03951" lon="5.91465">
        <ele>2693.57</ele>
        <time>2014-09-27T11:57:44Z</time>
      </trkpt>
      <trkpt lat="45.03946" lon="5.9144">
        <ele>2695.12</ele>
        <time>2014-09-27T11:58:25Z</time>
      </trkpt>
      <trkpt lat="45.03943" lon="5.91414">
        <ele>2698.15</ele>
        <time>2014-09-27T11:59:31Z</time>
      </trkpt>
      <trkpt lat="45.03932" lon="5.91393">
        <ele>2698.31</ele>
        <time>2014-09-27T11:59:46Z</time>
      </trkpt>
      <trkpt lat="45.03925" lon="5.91369">
        <ele>2698.18</ele>
        <time>2014-09-27T12:00:03Z</time>
      </trkpt>
      <trkpt lat="45.03919" lon="5.91344">
        <ele>2694.55</ele>
        <time>2014-09-27T12:01:24Z</time>
      </trkpt>
      <trkpt lat="45.03911" lon="5.91319">
        <ele>2688.32</ele>
        <time>2014-09-27T12:01:40Z</time>
      </trkpt>
      <trkpt lat="45.03903" lon="5.91295">
        <ele>2683.97</ele>
        <time>2014-09-27T12:01:56Z</time>
      </trkpt>
      <trkpt lat="45.03899" lon="5.9127">
        <ele>2685.03</ele>
        <time>2014-09-27T12:02:11Z</time>
      </trkpt>
      <trkpt lat="45.03891" lon="5.91247">
        <ele>2681.22</ele>
        <time>2014-09-27T12:02:54Z</time>
      </trkpt>
      <trkpt lat="45.03883" lon="5.91221">
        <ele>2681.81</ele>
        <time>2014-09-27T12:03:13Z</time>
      </trkpt>
      <trkpt lat="45.03879" lon="5.91195">
        <ele>2681.46</ele>
        <time>2014-09-27T12:03:30Z</time>
      </trkpt>
      <trkpt lat="45.03873" lon="5.91171">
        <ele>2681.8</ele>
        <time>2014-09-27T12:03:44Z</time>
      </trkpt>
      <trkpt lat="45.03864" lon="5.91148">
        <ele>2682.24</ele>
        <time>2014-09-27T12:04:06Z</time>
      </trkpt>
      <trkpt lat="45.03864" lon="5.91123">
        <ele>2681.39</ele>
        <time>2014-09-27T12:04:33Z</time>
      </trkpt>
      <trkpt lat="45.03857" lon="5.91098">
        <ele>2681.94</ele>
        <time>2014-09-27T12:05:04Z</time>
      </trkpt>
      <trkpt lat="45.03849" lon="5.91075">
        <ele>2681.77</ele>
        <time>2014-09-27T12:05:20Z</time>
      </trkpt>
      <trkpt lat="45.03836" lon="5.91053">
        <ele>2681.67</ele>
        <time>2014-09-27T12:05:36Z</time>
      </trkpt>
      <trkpt lat="45.03822" lon="5.91034">
        <ele>2682.28</ele>
        <time>2014-09-27T12:05:48Z</time>
      </trkpt>
      <trkpt lat="45.0381" lon="5.91015">
        <ele>2680.39</ele>
        <time>2014-09-27T12:06:05Z</time>
      </trkpt>
      <trkpt lat="45.03795" lon="5.90999">
        <ele>2668.73</ele>
        <time>2014-09-27T12:06:24Z</time>
      </trkpt>
      <trkpt lat="45.03782" lon="5.9098">
        <ele>2665.19</ele>
        <time>2014-09-27T12:06:37Z</time>
      </trkpt>
      <trkpt lat="45.03774" lon="5.90957">
        <ele>2667.18</ele>
        <time>2014-09-27T12:06:52Z</time>
      </trkpt>
      <trkpt lat="45.03765" lon="5.90934">
        <ele>2662.74</ele>
        <time>2014-09-27T12:07:20Z</time>
      </trkpt>
      <trkpt lat="45.03755" lon="5.90912">
        <ele>2665.01</ele>
        <time>2014-09-27T12:07:37Z</time>
      </trkpt>
      <trkpt lat="45.03739" lon="5.90896">
        <ele>2659.75</ele>
        <time>2014-09-27T12:08:03Z</time>
      </trkpt>
      <trkpt lat="45.03729" lon="5.90874">
        <ele>2654.29</ele>
        <time>2014-09-27T12:08:35Z</time>
      </trkpt>
      <trkpt lat="45.03717" lon="5.90855">
        <ele>2648.68</ele>
        <time>2014-09-27T12:09:00Z</time>
      </trkpt>
      <trkpt lat="45.03713" lon="5.9083">
        <ele>2648.73</ele>
        <time>2014-09-27T12:10:10Z</time>
      </trkpt>
      <trkpt lat="45.03702" lon="5.9081">
        <ele>2643.12</ele>
        <time>2014-09-27T12:10:48Z</time>
      </trkpt>
      <trkpt lat="45.0369" lon="5.90789">
        <ele>2641.91</ele>
        <time>2014-09-27T12:11:21Z</time>
      </trkpt>
      <trkpt lat="45.03683" lon="5.90766">
        <ele>2643.02</ele>
        <time>2014-09-27T12:12:36Z</time>
      </trkpt>
      <trkpt lat="45.03671" lon="5.90746">
        <ele>2642.63</ele>
        <time>2014-09-27T12:13:14Z</time>
      </trkpt>
      <trkpt lat="45.03659" lon="5.90725">
        <ele>2636.46</ele>
        <time>2014-09-27T12:13:50Z</time>
      </trkpt>
      <trkpt lat="45.03648" lon="5.90705">
        <ele>2636</ele>
        <time>2014-09-27T12:14:11Z</time>
      </trkpt>
      <trkpt lat="45.03646" lon="5.90678">
        <ele>2633.05</ele>
        <time>2014-09-27T12:14:31Z</time>
      </trkpt>
      <trkpt lat="45.03638" lon="5.90655">
        <ele>2629.75</ele>
        <time>2014-09-27T12:14:54Z</time>
      </trkpt>
      <trkpt lat="45.03627" lon="5.90634">
        <ele>2629.44</ele>
        <time>2014-09-27T12:15:17Z</time>
      </trkpt>
      <trkpt lat="45.03618" lon="5.90611">
        <ele>2628.14</ele>
        <time>2014-09-27T12:15:42Z</time>
      </trkpt>
      <trkpt lat="45.0361" lon="5.90588">
        <ele>2626.08</ele>
        <time>2014-09-27T12:16:21Z</time>
      </trkpt>
      <trkpt lat="45.036" lon="5.90564">
        <ele>2623.84</ele>
        <time>2014-09-27T12:17:15Z</time>
      </trkpt>
      <trkpt lat="45.03594" lon="5.90539">
        <ele>2618.24</ele>
        <time>2014-09-27T12:17:32Z</time>
      </trkpt>
      <trkpt lat="45.03586" lon="5.90515">
        <ele>2617.58</ele>
        <time>2014-09-27T12:17:45Z</time>
      </trkpt>
      <trkpt lat="45.03589" lon="5.9049">
        <ele>2621.32</ele>
        <time>2014-09-27T12:18:17Z</time>
      </trkpt>
      <trkpt lat="45.03581" lon="5.90466">
        <ele>2619.95</ele>
        <time>2014-09-27T12:20:03Z</time>
      </trkpt>
      <trkpt lat="45.03566" lon="5.90452">
        <ele>2618.03</ele>
        <time>2014-09-27T12:20:31Z</time>
      </trkpt>
      <trkpt lat="45.03551" lon="5.90437">
        <ele>2604.88</ele>
        <time>2014-09-27T12:21:00Z</time>
      </trkpt>
      <trkpt lat="45.03538" lon="5.90417">
        <ele>2596.36</ele>
        <time>2014-09-27T12:21:20Z</time>
      </trkpt>
      <trkpt lat="45.03521" lon="5.90403">
        <ele>2595.08</ele>
        <time>2014-09-27T12:21:39Z</time>
      </trkpt>
      <trkpt lat="45.03509" lon="5.90384">
        <ele>2582.12</ele>
        <time>2014-09-27T12:21:57Z</time>
      </trkpt>
      <trkpt lat="45.03495" lon="5.90367">
        <ele>2577.8</ele>
        <time>2014-09-27T12:22:15Z</time>
      </trkpt>
      <trkpt lat="45.0348" lon="5.9035">
        <ele>2576.18</ele>
        <time>2014-09-27T12:22:28Z</time>
      </trkpt>
      <trkpt lat="45.03461" lon="5.90345">
        <ele>2566.37</ele>
        <time>2014-09-27T12:22:44Z</time>
      </trkpt>
      <trkpt lat="45.03443" lon="5.9034">
        <ele>2562.79</ele>
        <time>2014-09-27T12:23:02Z</time>
      </trkpt>
      <trkpt lat="45.03425" lon="5.90333">
        <ele>2557.7</ele>
        <time>2014-09-27T12:23:29Z</time>
      </trkpt>
      <trkpt lat="45.03407" lon="5.90325">
        <ele>2553.57</ele>
        <time>2014-09-27T12:23:50Z</time>
      </trkpt>
      <trkpt lat="45.03389" lon="5.90321">
        <ele>2547.63</ele>
        <time>2014-09-27T12:24:12Z</time>
      </trkpt>
      <trkpt lat="45.03371" lon="5.90327">
        <ele>2542.49</ele>
        <time>2014-09-27T12:24:27Z</time>
      </trkpt>
      <trkpt lat="45.03354" lon="5.90338">
        <ele>2533.52</ele>
        <time>2014-09-27T12:24:46Z</time>
      </trkpt>
      <trkpt lat="45.03336" lon="5.90334">
        <ele>2525.06</ele>
        <time>2014-09-27T12:25:08Z</time>
      </trkpt>
      <trkpt lat="45.03327" lon="5.90312">
        <ele>2519.05</ele>
        <time>2014-09-27T12:25:39Z</time>
      </trkpt>
      <trkpt lat="45.0332" lon="5.90288">
        <ele>2510.82</ele>
        <time>2014-09-27T12:26:07Z</time>
      </trkpt>
      <trkpt lat="45.03319" lon="5.90262">
        <ele>2500.19</ele>
        <time>2014-09-27T12:26:32Z</time>
      </trkpt>
      <trkpt lat="45.03322" lon="5.90234">
        <ele>2498.04</ele>
        <time>2014-09-27T12:26:45Z</time>
      </trkpt>
      <trkpt lat="45.03322" lon="5.90208">
        <ele>2490.75</ele>
        <time>2014-09-27T12:27:09Z</time>
      </trkpt>
      <trkpt lat="45.03324" lon="5.90182">
        <ele>2483.2</ele>
        <time>2014-09-27T12:27:27Z</time>
      </trkpt>
      <trkpt lat="45.03306" lon="5.90169">
        <ele>2479.53</ele>
        <time>2014-09-27T12:27:42Z</time>
      </trkpt>
      <trkpt lat="45.03307" lon="5.90142">
        <ele>2468.22</ele>
        <time>2014-09-27T12:28:09Z</time>
      </trkpt>
      <trkpt lat="45.03293" lon="5.90125">
        <ele>2466.12</ele>
        <time>2014-09-27T12:28:31Z</time>
      </trkpt>
      <trkpt lat="45.03288" lon="5.90101">
        <ele>2458.58</ele>
        <time>2014-09-27T12:28:52Z</time>
      </trkpt>
      <trkpt lat="45.03305" lon="5.9009">
        <ele>2446.75</ele>
        <time>2014-09-27T12:33:22Z</time>
      </trkpt>
      <trkpt lat="45.03322" lon="5.90098">
        <ele>2447</ele>
        <time>2014-09-27T12:33:35Z</time>
      </trkpt>
      <trkpt lat="45.03341" lon="5.90101">
        <ele>2447.91</ele>
        <time>2014-09-27T12:33:52Z</time>
      </trkpt>
      <trkpt lat="45.03359" lon="5.90107">
        <ele>2440.28</ele>
        <time>2014-09-27T12:34:19Z</time>
      </trkpt>
      <trkpt lat="45.03378" lon="5.90106">
        <ele>2443.66</ele>
        <time>2014-09-27T12:34:33Z</time>
      </trkpt>
      <trkpt lat="45.03395" lon="5.90095">
        <ele>2433.45</ele>
        <time>2014-09-27T12:35:03Z</time>
      </trkpt>
      <trkpt lat="45.03411" lon="5.90084">
        <ele>2423.29</ele>
        <time>2014-09-27T12:35:23Z</time>
      </trkpt>
      <trkpt lat="45.03427" lon="5.90071">
        <ele>2416.83</ele>
        <time>2014-09-27T12:35:47Z</time>
      </trkpt>
      <trkpt lat="45.03445" lon="5.90066">
        <ele>2407.4</ele>
        <time>2014-09-27T12:36:11Z</time>
      </trkpt>
      <trkpt lat="45.03462" lon="5.90054">
        <ele>2402.66</ele>
        <time>2014-09-27T12:36:34Z</time>
      </trkpt>
      <trkpt lat="45.03481" lon="5.90054">
        <ele>2397.26</ele>
        <time>2014-09-27T12:36:50Z</time>
      </trkpt>
      <trkpt lat="45.03499" lon="5.90054">
        <ele>2390.72</ele>
        <time>2014-09-27T12:37:19Z</time>
      </trkpt>
      <trkpt lat="45.03518" lon="5.90058">
        <ele>2386.57</ele>
        <time>2014-09-27T12:37:38Z</time>
      </trkpt>
      <trkpt lat="45.03536" lon="5.90054">
        <ele>2381.74</ele>
        <time>2014-09-27T12:38:03Z</time>
      </trkpt>
      <trkpt lat="45.03555" lon="5.90059">
        <ele>2378.87</ele>
        <time>2014-09-27T12:38:25Z</time>
      </trkpt>
      <trkpt lat="45.03573" lon="5.90059">
        <ele>2379</ele>
        <time>2014-09-27T12:38:45Z</time>
      </trkpt>
      <trkpt lat="45.03592" lon="5.90062">
        <ele>2378.51</ele>
        <time>2014-09-27T12:39:04Z</time>
      </trkpt>
      <trkpt lat="45.03611" lon="5.9006">
        <ele>2381.02</ele>
        <time>2014-09-27T12:39:23Z</time>
      </trkpt>
      <trkpt lat="45.03627" lon="5.90046">
        <ele>2381.64</ele>
        <time>2014-09-27T12:39:42Z</time>
      </trkpt>
      <trkpt lat="45.03644" lon="5.90033">
        <ele>2380.81</ele>
        <time>2014-09-27T12:40:03Z</time>
      </trkpt>
      <trkpt lat="45.0366" lon="5.90022">
        <ele>2380.85</ele>
        <time>2014-09-27T12:40:21Z</time>
      </trkpt>
      <trkpt lat="45.03676" lon="5.90008">
        <ele>2382.7</ele>
        <time>2014-09-27T12:40:50Z</time>
      </trkpt>
      <trkpt lat="45.03693" lon="5.89999">
        <ele>2384.41</ele>
        <time>2014-09-27T12:41:11Z</time>
      </trkpt>
      <trkpt lat="45.03708" lon="5.89982">
        <ele>2385.09</ele>
        <time>2014-09-27T12:41:46Z</time>
      </trkpt>
      <trkpt lat="45.03725" lon="5.89971">
        <ele>2382.71</ele>
        <time>2014-09-27T12:42:00Z</time>
      </trkpt>
      <trkpt lat="45.03741" lon="5.89957">
        <ele>2380.43</ele>
        <time>2014-09-27T12:42:14Z</time>
      </trkpt>
      <trkpt lat="45.03757" lon="5.89943">
        <ele>2375.95</ele>
        <time>2014-09-27T12:42:30Z</time>
      </trkpt>
      <trkpt lat="45.03768" lon="5.89921">
        <ele>2372.99</ele>
        <time>2014-09-27T12:42:49Z</time>
      </trkpt>
      <trkpt lat="45.03779" lon="5.89901">
        <ele>2367.93</ele>
        <time>2014-09-27T12:43:11Z</time>
      </trkpt>
      <trkpt lat="45.03787" lon="5.89877">
        <ele>2362.13</ele>
        <time>2014-09-27T12:43:28Z</time>
      </trkpt>
      <trkpt lat="45.03798" lon="5.89856">
        <ele>2356.91</ele>
        <time>2014-09-27T12:43:42Z</time>
      </trkpt>
      <trkpt lat="45.03809" lon="5.89835">
        <ele>2355.81</ele>
        <time>2014-09-27T12:43:54Z</time>
      </trkpt>
      <trkpt lat="45.03813" lon="5.89809">
        <ele>2352.38</ele>
        <time>2014-09-27T12:44:09Z</time>
      </trkpt>
      <trkpt lat="45.03818" lon="5.89784">
        <ele>2348.57</ele>
        <time>2014-09-27T12:44:31Z</time>
      </trkpt>
      <trkpt lat="45.03828" lon="5.89762">
        <ele>2347.34</ele>
        <time>2014-09-27T12:44:45Z</time>
      </trkpt>
      <trkpt lat="45.03842" lon="5.89743">
        <ele>2345.77</ele>
        <time>2014-09-27T12:44:57Z</time>
      </trkpt>
      <trkpt lat="45.03857" lon="5.89729">
        <ele>2344.15</ele>
        <time>2014-09-27T12:45:10Z</time>
      </trkpt>
      <trkpt lat="45.03869" lon="5.89707">
        <ele>2342.63</ele>
        <time>2014-09-27T12:45:25Z</time>
      </trkpt>
      <trkpt lat="45.03879" lon="5.89685">
        <ele>2340.11</ele>
        <time>2014-09-27T12:45:42Z</time>
      </trkpt>
      <trkpt lat="45.0389" lon="5.89665">
        <ele>2339.38</ele>
        <time>2014-09-27T12:45:59Z</time>
      </trkpt>
      <trkpt lat="45.03886" lon="5.89639">
        <ele>2339.45</ele>
        <time>2014-09-27T12:46:13Z</time>
      </trkpt>
      <trkpt lat="45.03889" lon="5.89612">
        <ele>2338.26</ele>
        <time>2014-09-27T12:46:30Z</time>
      </trkpt>
      <trkpt lat="45.03889" lon="5.89585">
        <ele>2335.21</ele>
        <time>2014-09-27T12:46:45Z</time>
      </trkpt>
      <trkpt lat="45.0389" lon="5.89558">
        <ele>2334</ele>
        <time>2014-09-27T12:47:01Z</time>
      </trkpt>
      <trkpt lat="45.03897" lon="5.89534">
        <ele>2331.54</ele>
        <time>2014-09-27T12:47:21Z</time>
      </trkpt>
      <trkpt lat="45.03903" lon="5.8951">
        <ele>2328.65</ele>
        <time>2014-09-27T12:47:38Z</time>
      </trkpt>
      <trkpt lat="45.0391" lon="5.89485">
        <ele>2330.06</ele>
        <time>2014-09-27T12:47:50Z</time>
      </trkpt>
      <trkpt lat="45.03916" lon="5.89461">
        <ele>2325.95</ele>
        <time>2014-09-27T12:48:04Z</time>
      </trkpt>
      <trkpt lat="45.03921" lon="5.89436">
        <ele>2324.63</ele>
        <time>2014-09-27T12:48:23Z</time>
      </trkpt>
      <trkpt lat="45.03925" lon="5.89411">
        <ele>2316.3</ele>
        <time>2014-09-27T12:48:42Z</time>
      </trkpt>
      <trkpt lat="45.03931" lon="5.89386">
        <ele>2312.95</ele>
        <time>2014-09-27T12:49:03Z</time>
      </trkpt>
      <trkpt lat="45.03938" lon="5.89362">
        <ele>2305.23</ele>
        <time>2014-09-27T12:49:19Z</time>
      </trkpt>
      <trkpt lat="45.03948" lon="5.89341">
        <ele>2303.95</ele>
        <time>2014-09-27T12:49:53Z</time>
      </trkpt>
      <trkpt lat="45.03958" lon="5.8932">
        <ele>2298.47</ele>
        <time>2014-09-27T12:50:04Z</time>
      </trkpt>
      <trkpt lat="45.03964" lon="5.89295">
        <ele>2293.19</ele>
        <time>2014-09-27T12:50:17Z</time>
      </trkpt>
      <trkpt lat="45.03966" lon="5.89268">
        <ele>2288.43</ele>
        <time>2014-09-27T12:50:39Z</time>
      </trkpt>
      <trkpt lat="45.03978" lon="5.8925">
        <ele>2285.49</ele>
        <time>2014-09-27T12:50:54Z</time>
      </trkpt>
      <trkpt lat="45.03989" lon="5.89228">
        <ele>2287.31</ele>
        <time>2014-09-27T12:51:08Z</time>
      </trkpt>
      <trkpt lat="45.04004" lon="5.8921">
        <ele>2282.88</ele>
        <time>2014-09-27T12:51:21Z</time>
      </trkpt>
      <trkpt lat="45.04014" lon="5.89188">
        <ele>2279.77</ele>
        <time>2014-09-27T12:51:33Z</time>
      </trkpt>
      <trkpt lat="45.04026" lon="5.89169">
        <ele>2274.09</ele>
        <time>2014-09-27T12:51:52Z</time>
      </trkpt>
      <trkpt lat="45.0404" lon="5.89151">
        <ele>2269.11</ele>
        <time>2014-09-27T12:52:10Z</time>
      </trkpt>
      <trkpt lat="45.04053" lon="5.89133">
        <ele>2270.68</ele>
        <time>2014-09-27T12:52:21Z</time>
      </trkpt>
      <trkpt lat="45.0406" lon="5.89109">
        <ele>2264.47</ele>
        <time>2014-09-27T12:52:38Z</time>
      </trkpt>
      <trkpt lat="45.04065" lon="5.89083">
        <ele>2262.47</ele>
        <time>2014-09-27T12:52:53Z</time>
      </trkpt>
      <trkpt lat="45.04071" lon="5.89058">
        <ele>2260.03</ele>
        <time>2014-09-27T12:53:06Z</time>
      </trkpt>
      <trkpt lat="45.0407" lon="5.89031">
        <ele>2248.26</ele>
        <time>2014-09-27T12:53:23Z</time>
      </trkpt>
      <trkpt lat="45.04069" lon="5.89004">
        <ele>2240.97</ele>
        <time>2014-09-27T12:53:44Z</time>
      </trkpt>
      <trkpt lat="45.04078" lon="5.88981">
        <ele>2244.9</ele>
        <time>2014-09-27T12:53:53Z</time>
      </trkpt>
      <trkpt lat="45.04084" lon="5.88957">
        <ele>2250.6</ele>
        <time>2014-09-27T12:54:00Z</time>
      </trkpt>
      <trkpt lat="45.04087" lon="5.88932">
        <ele>2250.41</ele>
        <time>2014-09-27T12:54:08Z</time>
      </trkpt>
      <trkpt lat="45.04081" lon="5.88908">
        <ele>2247.59</ele>
        <time>2014-09-27T12:54:28Z</time>
      </trkpt>
      <trkpt lat="45.04082" lon="5.8888">
        <ele>2247.63</ele>
        <time>2014-09-27T12:54:43Z</time>
      </trkpt>
      <trkpt lat="45.04079" lon="5.88854">
        <ele>2245.9</ele>
        <time>2014-09-27T12:54:54Z</time>
      </trkpt>
      <trkpt lat="45.04073" lon="5.88829">
        <ele>2246.68</ele>
        <time>2014-09-27T12:55:06Z</time>
      </trkpt>
      <trkpt lat="45.04068" lon="5.88804">
        <ele>2245.06</ele>
        <time>2014-09-27T12:55:21Z</time>
      </trkpt>
      <trkpt lat="45.04058" lon="5.88782">
        <ele>2241.29</ele>
        <time>2014-09-27T12:55:38Z</time>
      </trkpt>
      <trkpt lat="45.04045" lon="5.88762">
        <ele>2237.5</ele>
        <time>2014-09-27T12:55:49Z</time>
      </trkpt>
      <trkpt lat="45.04034" lon="5.88741">
        <ele>2237.91</ele>
        <time>2014-09-27T12:56:01Z</time>
      </trkpt>
      <trkpt lat="45.04026" lon="5.88718">
        <ele>2242.14</ele>
        <time>2014-09-27T12:56:12Z</time>
      </trkpt>
      <trkpt lat="45.04013" lon="5.88701">
        <ele>2235.55</ele>
        <time>2014-09-27T12:56:29Z</time>
      </trkpt>
      <trkpt lat="45.03998" lon="5.88684">
        <ele>2229.62</ele>
        <time>2014-09-27T12:56:46Z</time>
      </trkpt>
      <trkpt lat="45.03982" lon="5.88672">
        <ele>2227</ele>
        <time>2014-09-27T12:56:57Z</time>
      </trkpt>
      <trkpt lat="45.0397" lon="5.88651">
        <ele>2219.01</ele>
        <time>2014-09-27T12:57:16Z</time>
      </trkpt>
      <trkpt lat="45.03956" lon="5.88632">
        <ele>2212.89</ele>
        <time>2014-09-27T12:57:38Z</time>
      </trkpt>
      <trkpt lat="45.03943" lon="5.8861">
        <ele>2216.71</ele>
        <time>2014-09-27T12:57:45Z</time>
      </trkpt>
      <trkpt lat="45.0393" lon="5.88591">
        <ele>2212.76</ele>
        <time>2014-09-27T12:57:56Z</time>
      </trkpt>
      <trkpt lat="45.03919" lon="5.88568">
        <ele>2202.39</ele>
        <time>2014-09-27T12:58:28Z</time>
      </trkpt>
      <trkpt lat="45.03903" lon="5.8855">
        <ele>2205.64</ele>
        <time>2014-09-27T12:58:37Z</time>
      </trkpt>
      <trkpt lat="45.0389" lon="5.88531">
        <ele>2204.19</ele>
        <time>2014-09-27T12:58:46Z</time>
      </trkpt>
      <trkpt lat="45.03877" lon="5.88512">
        <ele>2203.07</ele>
        <time>2014-09-27T12:58:56Z</time>
      </trkpt>
      <trkpt lat="45.03873" lon="5.88487">
        <ele>2175.18</ele>
        <time>2014-09-27T12:59:41Z</time>
      </trkpt>
      <trkpt lat="45.03861" lon="5.88465">
        <ele>2175.73</ele>
        <time>2014-09-27T12:59:58Z</time>
      </trkpt>
      <trkpt lat="45.03848" lon="5.88448">
        <ele>2172.09</ele>
        <time>2014-09-27T13:00:13Z</time>
      </trkpt>
      <trkpt lat="45.03837" lon="5.88425">
        <ele>2168.38</ele>
        <time>2014-09-27T13:00:25Z</time>
      </trkpt>
      <trkpt lat="45.03826" lon="5.88403">
        <ele>2166.74</ele>
        <time>2014-09-27T13:00:36Z</time>
      </trkpt>
      <trkpt lat="45.03816" lon="5.8838">
        <ele>2164.03</ele>
        <time>2014-09-27T13:00:47Z</time>
      </trkpt>
      <trkpt lat="45.03808" lon="5.88356">
        <ele>2162.54</ele>
        <time>2014-09-27T13:01:01Z</time>
      </trkpt>
      <trkpt lat="45.03802" lon="5.88331">
        <ele>2155.97</ele>
        <time>2014-09-27T13:01:15Z</time>
      </trkpt>
      <trkpt lat="45.03796" lon="5.88306">
        <ele>2153.03</ele>
        <time>2014-09-27T13:01:25Z</time>
      </trkpt>
      <trkpt lat="45.03793" lon="5.88281">
        <ele>2149.15</ele>
        <time>2014-09-27T13:01:46Z</time>
      </trkpt>
      <trkpt lat="45.03789" lon="5.88255">
        <ele>2148.24</ele>
        <time>2014-09-27T13:02:04Z</time>
      </trkpt>
      <trkpt lat="45.03799" lon="5.88233">
        <ele>2150.22</ele>
        <time>2014-09-27T13:02:14Z</time>
      </trkpt>
      <trkpt lat="45.03799" lon="5.88207">
        <ele>2145.31</ele>
        <time>2014-09-27T13:02:31Z</time>
      </trkpt>
      <trkpt lat="45.03795" lon="5.8818">
        <ele>2136.84</ele>
        <time>2014-09-27T13:03:05Z</time>
      </trkpt>
      <trkpt lat="45.03797" lon="5.88154">
        <ele>2137.8</ele>
        <time>2014-09-27T13:03:18Z</time>
      </trkpt>
      <trkpt lat="45.03798" lon="5.88128">
        <ele>2135.69</ele>
        <time>2014-09-27T13:03:33Z</time>
      </trkpt>
      <trkpt lat="45.03799" lon="5.88102">
        <ele>2132.76</ele>
        <time>2014-09-27T13:03:45Z</time>
      </trkpt>
      <trkpt lat="45.038" lon="5.88076">
        <ele>2127.39</ele>
        <time>2014-09-27T13:04:04Z</time>
      </trkpt>
      <trkpt lat="45.03798" lon="5.8805">
        <ele>2122.75</ele>
        <time>2014-09-27T13:04:21Z</time>
      </trkpt>
      <trkpt lat="45.03797" lon="5.88023">
        <ele>2118.09</ele>
        <time>2014-09-27T13:04:36Z</time>
      </trkpt>
      <trkpt lat="45.03797" lon="5.87997">
        <ele>2113.29</ele>
        <time>2014-09-27T13:04:48Z</time>
      </trkpt>
      <trkpt lat="45.03799" lon="5.87971">
        <ele>2108.18</ele>
        <time>2014-09-27T13:05:02Z</time>
      </trkpt>
      <trkpt lat="45.03798" lon="5.87944">
        <ele>2104.36</ele>
        <time>2014-09-27T13:05:22Z</time>
      </trkpt>
      <trkpt lat="45.038" lon="5.87918">
        <ele>2100.48</ele>
        <time>2014-09-27T13:05:39Z</time>
      </trkpt>
      <trkpt lat="45.03799" lon="5.87891">
        <ele>2093.65</ele>
        <time>2014-09-27T13:05:56Z</time>
      </trkpt>
      <trkpt lat="45.03803" lon="5.87866">
        <ele>2090.92</ele>
        <time>2014-09-27T13:06:10Z</time>
      </trkpt>
      <trkpt lat="45.03806" lon="5.87839">
        <ele>2086.03</ele>
        <time>2014-09-27T13:06:23Z</time>
      </trkpt>
      <trkpt lat="45.03812" lon="5.87815">
        <ele>2078.23</ele>
        <time>2014-09-27T13:07:17Z</time>
      </trkpt>
      <trkpt lat="45.03821" lon="5.87793">
        <ele>2070.96</ele>
        <time>2014-09-27T13:07:34Z</time>
      </trkpt>
      <trkpt lat="45.03834" lon="5.87774">
        <ele>2065.95</ele>
        <time>2014-09-27T13:07:49Z</time>
      </trkpt>
      <trkpt lat="45.03845" lon="5.87752">
        <ele>2060.5</ele>
        <time>2014-09-27T13:08:09Z</time>
      </trkpt>
      <trkpt lat="45.03849" lon="5.87727">
        <ele>2052.57</ele>
        <time>2014-09-27T13:08:36Z</time>
      </trkpt>
      <trkpt lat="45.03848" lon="5.877">
        <ele>2044.08</ele>
        <time>2014-09-27T13:08:59Z</time>
      </trkpt>
      <trkpt lat="45.03847" lon="5.87674">
        <ele>2033.73</ele>
        <time>2014-09-27T13:09:53Z</time>
      </trkpt>
      <trkpt lat="45.03852" lon="5.87649">
        <ele>2026.88</ele>
        <time>2014-09-27T13:10:17Z</time>
      </trkpt>
      <trkpt lat="45.03851" lon="5.87623">
        <ele>2021.18</ele>
        <time>2014-09-27T13:10:34Z</time>
      </trkpt>
      <trkpt lat="45.03855" lon="5.87597">
        <ele>2015.4</ele>
        <time>2014-09-27T13:10:59Z</time>
      </trkpt>
      <trkpt lat="45.03861" lon="5.87573">
        <ele>2008.43</ele>
        <time>2014-09-27T13:11:22Z</time>
      </trkpt>
      <trkpt lat="45.03858" lon="5.87548">
        <ele>1994.89</ele>
        <time>2014-09-27T13:12:01Z</time>
      </trkpt>
      <trkpt lat="45.03874" lon="5.87535">
        <ele>1989.07</ele>
        <time>2014-09-27T13:12:17Z</time>
      </trkpt>
      <trkpt lat="45.03887" lon="5.87517">
        <ele>1979.07</ele>
        <time>2014-09-27T13:12:50Z</time>
      </trkpt>
      <trkpt lat="45.03906" lon="5.87515">
        <ele>1973.92</ele>
        <time>2014-09-27T13:13:16Z</time>
      </trkpt>
      <trkpt lat="45.03924" lon="5.87517">
        <ele>1965.27</ele>
        <time>2014-09-27T13:13:39Z</time>
      </trkpt>
      <trkpt lat="45.03942" lon="5.87515">
        <ele>1960.32</ele>
        <time>2014-09-27T13:13:57Z</time>
      </trkpt>
      <trkpt lat="45.0396" lon="5.8752">
        <ele>1955.6</ele>
        <time>2014-09-27T13:14:19Z</time>
      </trkpt>
      <trkpt lat="45.03977" lon="5.87531">
        <ele>1947.01</ele>
        <time>2014-09-27T13:14:52Z</time>
      </trkpt>
      <trkpt lat="45.03994" lon="5.8754">
        <ele>1941.4</ele>
        <time>2014-09-27T13:15:12Z</time>
      </trkpt>
      <trkpt lat="45.04012" lon="5.87532">
        <ele>1938.89</ele>
        <time>2014-09-27T13:15:55Z</time>
      </trkpt>
      <trkpt lat="45.04025" lon="5.87512">
        <ele>1937.2</ele>
        <time>2014-09-27T13:16:10Z</time>
      </trkpt>
      <trkpt lat="45.04032" lon="5.87489">
        <ele>1934.53</ele>
        <time>2014-09-27T13:16:28Z</time>
      </trkpt>
      <trkpt lat="45.04044" lon="5.87468">
        <ele>1929.57</ele>
        <time>2014-09-27T13:16:55Z</time>
      </trkpt>
      <trkpt lat="45.04059" lon="5.87454">
        <ele>1925.11</ele>
        <time>2014-09-27T13:17:32Z</time>
      </trkpt>
      <trkpt lat="45.04075" lon="5.87439">
        <ele>1918.66</ele>
        <time>2014-09-27T13:17:55Z</time>
      </trkpt>
      <trkpt lat="45.04092" lon="5.8743">
        <ele>1918.77</ele>
        <time>2014-09-27T13:18:15Z</time>
      </trkpt>
      <trkpt lat="45.0411" lon="5.87424">
        <ele>1908.02</ele>
        <time>2014-09-27T13:18:38Z</time>
      </trkpt>
      <trkpt lat="45.04129" lon="5.87421">
        <ele>1901.22</ele>
        <time>2014-09-27T13:18:59Z</time>
      </trkpt>
      <trkpt lat="45.04123" lon="5.87397">
        <ele>1896.41</ele>
        <time>2014-09-27T13:19:18Z</time>
      </trkpt>
      <trkpt lat="45.04121" lon="5.87371">
        <ele>1893.3</ele>
        <time>2014-09-27T13:19:47Z</time>
      </trkpt>
      <trkpt lat="45.04121" lon="5.87345">
        <ele>1885.09</ele>
        <time>2014-09-27T13:20:19Z</time>
      </trkpt>
      <trkpt lat="45.0413" lon="5.87322">
        <ele>1881.13</ele>
        <time>2014-09-27T13:20:44Z</time>
      </trkpt>
      <trkpt lat="45.04145" lon="5.87307">
        <ele>1877.34</ele>
        <time>2014-09-27T13:21:14Z</time>
      </trkpt>
      <trkpt lat="45.04163" lon="5.87309">
        <ele>1865.21</ele>
        <time>2014-09-27T13:21:35Z</time>
      </trkpt>
      <trkpt lat="45.04175" lon="5.87291">
        <ele>1860.45</ele>
        <time>2014-09-27T13:21:53Z</time>
      </trkpt>
      <trkpt lat="45.04182" lon="5.87265">
        <ele>1852.57</ele>
        <time>2014-09-27T13:22:13Z</time>
      </trkpt>
      <trkpt lat="45.04198" lon="5.87252">
        <ele>1849.35</ele>
        <time>2014-09-27T13:22:30Z</time>
      </trkpt>
      <trkpt lat="45.04215" lon="5.87243">
        <ele>1842.33</ele>
        <time>2014-09-27T13:22:49Z</time>
      </trkpt>
      <trkpt lat="45.04232" lon="5.87253">
        <ele>1831.43</ele>
        <time>2014-09-27T13:27:51Z</time>
      </trkpt>
      <trkpt lat="45.04241" lon="5.87276">
        <ele>1823.9</ele>
        <time>2014-09-27T13:28:16Z</time>
      </trkpt>
      <trkpt lat="45.04249" lon="5.87301">
        <ele>1815.87</ele>
        <time>2014-09-27T13:28:46Z</time>
      </trkpt>
      <trkpt lat="45.04259" lon="5.87323">
        <ele>1807.78</ele>
        <time>2014-09-27T13:29:20Z</time>
      </trkpt>
      <trkpt lat="45.04276" lon="5.87332">
        <ele>1806.88</ele>
        <time>2014-09-27T13:29:39Z</time>
      </trkpt>
      <trkpt lat="45.04293" lon="5.87324">
        <ele>1800.6</ele>
        <time>2014-09-27T13:30:06Z</time>
      </trkpt>
      <trkpt lat="45.04309" lon="5.8731">
        <ele>1788.4</ele>
        <time>2014-09-27T13:30:42Z</time>
      </trkpt>
      <trkpt lat="45.04326" lon="5.87302">
        <ele>1773.95</ele>
        <time>2014-09-27T13:31:19Z</time>
      </trkpt>
      <trkpt lat="45.04339" lon="5.87283">
        <ele>1763.35</ele>
        <time>2014-09-27T13:31:55Z</time>
      </trkpt>
      <trkpt lat="45.04353" lon="5.87267">
        <ele>1752.31</ele>
        <time>2014-09-27T13:32:17Z</time>
      </trkpt>
      <trkpt lat="45.04371" lon="5.87261">
        <ele>1740.73</ele>
        <time>2014-09-27T13:32:43Z</time>
      </trkpt>
      <trkpt lat="45.04389" lon="5.87255">
        <ele>1732.88</ele>
        <time>2014-09-27T13:33:02Z</time>
      </trkpt>
      <trkpt lat="45.04407" lon="5.87252">
        <ele>1727.28</ele>
        <time>2014-09-27T13:33:18Z</time>
      </trkpt>
      <trkpt lat="45.04425" lon="5.87243">
        <ele>1726.78</ele>
        <time>2014-09-27T13:33:34Z</time>
      </trkpt>
      <trkpt lat="45.04441" lon="5.87229">
        <ele>1720.45</ele>
        <time>2014-09-27T13:33:53Z</time>
      </trkpt>
      <trkpt lat="45.04456" lon="5.87212">
        <ele>1713.21</ele>
        <time>2014-09-27T13:34:18Z</time>
      </trkpt>
      <trkpt lat="45.04468" lon="5.87193">
        <ele>1710.24</ele>
        <time>2014-09-27T13:34:37Z</time>
      </trkpt>
      <trkpt lat="45.04487" lon="5.8719">
        <ele>1707.95</ele>
        <time>2014-09-27T13:34:55Z</time>
      </trkpt>
      <trkpt lat="45.04505" lon="5.87194">
        <ele>1700.8</ele>
        <time>2014-09-27T13:35:14Z</time>
      </trkpt>
      <trkpt lat="45.04523" lon="5.87197">
        <ele>1698.47</ele>
        <time>2014-09-27T13:35:29Z</time>
      </trkpt>
      <trkpt lat="45.04541" lon="5.87206">
        <ele>1684.84</ele>
        <time>2014-09-27T13:38:47Z</time>
      </trkpt>
      <trkpt lat="45.04559" lon="5.87215">
        <ele>1681.73</ele>
        <time>2014-09-27T13:39:38Z</time>
      </trkpt>
      <trkpt lat="45.04573" lon="5.8723">
        <ele>1676.34</ele>
        <time>2014-09-27T13:39:54Z</time>
      </trkpt>
      <trkpt lat="45.04589" lon="5.87245">
        <ele>1673.59</ele>
        <time>2014-09-27T13:40:08Z</time>
      </trkpt>
      <trkpt lat="45.04607" lon="5.87257">
        <ele>1670.64</ele>
        <time>2014-09-27T13:40:21Z</time>
      </trkpt>
      <trkpt lat="45.04624" lon="5.87266">
        <ele>1671.74</ele>
        <time>2014-09-27T13:40:36Z</time>
      </trkpt>
      <trkpt lat="45.04643" lon="5.87267">
        <ele>1673.91</ele>
        <time>2014-09-27T13:40:48Z</time>
      </trkpt>
      <trkpt lat="45.04662" lon="5.87267">
        <ele>1672.78</ele>
        <time>2014-09-27T13:41:02Z</time>
      </trkpt>
      <trkpt lat="45.0468" lon="5.87272">
        <ele>1670.29</ele>
        <time>2014-09-27T13:41:17Z</time>
      </trkpt>
      <trkpt lat="45.04696" lon="5.87287">
        <ele>1668.15</ele>
        <time>2014-09-27T13:41:35Z</time>
      </trkpt>
    </trkseg>
  </trk>
</gpx>